SIA23 KJFK-WSSS
Flight info
| Callsign | SIA23 |
|---|---|
| Flight time | N/A |
| Altitude | 33000 |
| Route | BETTE DCT ACK DCT BRADD DCT ALLRY/M085F330 DCT 51N050W 53N040W 54N030W 54N020W DCT DOGAL/N0490F330 DCT BEXET/N0487F350 DCT INKUR DCT LIFFY UL975 WAL M16 MCT/N0481F370 M16 DOLAS L603 LAMSO DCT AMSAN DCT KUMER DCT OMELO DCT PEPIK DCT BERVA DCT TEKVI DCT ZURFA DCT LUVEL DCT BUDOP DCT UDROS DCT CRM/N0483F390 UM11 TBN UR317 REBLO M11 LUSAL N199 BAKUV N701 LARGI B701 KRS A240 INRAK B449 DOLOS B475 NINOP A909 LEMOD N644 DI/N0486F410 A466 SULOM M890 LKN R460 BBN P646 POXEM M626 IKOGA Y24 PASVA Y514 NUFFA DCT PIBAP DCT PASPU DCT NYLON DCT POSUB DCT SANAT |
| Aircraft | A359/H-SDE2E3GHIJ3J4J5LM1ORWXY/LB1D1 |
Departure
| Time | 2026-05-08 19:05 |
|---|---|
| Airport | John F. Kennedy International Airport (KJFK) |
Arrival
| Time | N/A |
|---|---|
| Airport | Singapore Changi Airport (WSSS) |
| Time | Latitude | Longitude | Altitude | Speed | Heading |
|---|---|---|---|---|---|
| 2026-05-08 18:11 | 40.64384 | -73.77934 | 26 ft | 0 kts | 243° |
| 2026-05-08 18:30 | 40.64384 | -73.77933 | 26 ft | 0 kts | 243° |
| 2026-05-08 18:43 | 40.64387 | -73.77924 | 27 ft | 2 kts | 243° |
| 2026-05-08 18:43 | 40.64397 | -73.77900 | 25 ft | 3 kts | 243° |
| 2026-05-08 18:43 | 40.64404 | -73.77880 | 27 ft | 3 kts | 243° |
| 2026-05-08 18:44 | 40.64411 | -73.77862 | 26 ft | 1 kts | 244° |
| 2026-05-08 18:44 | 40.64417 | -73.77846 | 26 ft | 3 kts | 228° |
| 2026-05-08 18:44 | 40.64425 | -73.77834 | 25 ft | 3 kts | 191° |
| 2026-05-08 18:44 | 40.64429 | -73.77830 | 26 ft | 3 kts | 149° |
| 2026-05-08 18:45 | 40.64440 | -73.77843 | 25 ft | 3 kts | 125° |
| 2026-05-08 18:45 | 40.64451 | -73.77865 | 23 ft | 3 kts | 117° |
| 2026-05-08 18:45 | 40.64459 | -73.77888 | 23 ft | 2 kts | 111° |
| 2026-05-08 18:45 | 40.64461 | -73.77894 | 24 ft | 1 kts | 111° |
| 2026-05-08 18:56 | 40.64450 | -73.77855 | 26 ft | 21 kts | 110° |
| 2026-05-08 18:56 | 40.64390 | -73.77713 | 26 ft | 0 kts | 132° |
| 2026-05-08 18:57 | 40.64357 | -73.77679 | 26 ft | 8 kts | 149° |
| 2026-05-08 18:57 | 40.64271 | -73.77620 | 26 ft | 14 kts | 152° |
| 2026-05-08 18:57 | 40.64173 | -73.77545 | 26 ft | 18 kts | 149° |
| 2026-05-08 18:58 | 40.64066 | -73.77426 | 26 ft | 22 kts | 126° |
| 2026-05-08 18:58 | 40.63970 | -73.77258 | 26 ft | 24 kts | 128° |
| 2026-05-08 18:58 | 40.63866 | -73.77077 | 31 ft | 26 kts | 128° |
| 2026-05-08 18:58 | 40.63735 | -73.76917 | 26 ft | 26 kts | 173° |
| 2026-05-08 18:59 | 40.63554 | -73.76917 | 26 ft | 27 kts | 180° |
| 2026-05-08 18:59 | 40.63390 | -73.76930 | 26 ft | 19 kts | 184° |
| 2026-05-08 18:59 | 40.63318 | -73.76938 | 26 ft | 10 kts | 185° |
| 2026-05-08 18:59 | 40.63235 | -73.76946 | 26 ft | 14 kts | 184° |
| 2026-05-08 19:00 | 40.63129 | -73.76963 | 26 ft | 16 kts | 191° |
| 2026-05-08 19:00 | 40.63024 | -73.77027 | 26 ft | 18 kts | 210° |
| 2026-05-08 19:00 | 40.62913 | -73.77112 | 27 ft | 15 kts | 211° |
| 2026-05-08 19:00 | 40.62908 | -73.77116 | 27 ft | 0 kts | 210° |
| 2026-05-08 19:02 | 40.62907 | -73.77117 | 27 ft | 0 kts | 210° |
| 2026-05-08 19:02 | 40.62898 | -73.77124 | 27 ft | 3 kts | 210° |
| 2026-05-08 19:02 | 40.62866 | -73.77149 | 27 ft | 8 kts | 211° |
| 2026-05-08 19:03 | 40.62832 | -73.77203 | 27 ft | 8 kts | 254° |
| 2026-05-08 19:03 | 40.62839 | -73.77279 | 27 ft | 9 kts | 303° |
| 2026-05-08 19:03 | 40.62878 | -73.77357 | 27 ft | 12 kts | 303° |
| 2026-05-08 19:03 | 40.62946 | -73.77503 | 27 ft | 35 kts | 304° |
| 2026-05-08 19:04 | 40.63146 | -73.77972 | 30 ft | 79 kts | 308° |
| 2026-05-08 19:04 | 40.63512 | -73.78771 | 32 ft | 118 kts | 287° |
| 2026-05-08 19:04 | 40.63950 | -73.79778 | 27 ft | 143 kts | 305° |
| 2026-05-08 19:04 | 40.64549 | -73.81012 | 50 ft | 178 kts | 300° |
| 2026-05-08 19:05 | 40.65229 | -73.82397 | 517 ft | 178 kts | 300° |
| 2026-05-08 19:05 | 40.66005 | -73.83643 | 1044 ft | 176 kts | 318° |
| 2026-05-08 19:05 | 40.66975 | -73.84681 | 1391 ft | 187 kts | 311° |
| 2026-05-08 19:05 | 40.67571 | -73.86225 | 1511 ft | 197 kts | 271° |
| 2026-05-08 19:06 | 40.67155 | -73.87913 | 1867 ft | 207 kts | 231° |
| 2026-05-08 19:06 | 40.65852 | -73.88832 | 2293 ft | 224 kts | 191° |
| 2026-05-08 19:06 | 40.64299 | -73.88673 | 2795 ft | 233 kts | 174° |
| 2026-05-08 19:06 | 40.62667 | -73.88444 | 3211 ft | 234 kts | 191° |
| 2026-05-08 19:07 | 40.61175 | -73.89116 | 3711 ft | 222 kts | 215° |
| 2026-05-08 19:07 | 40.59783 | -73.90032 | 4145 ft | 231 kts | 204° |
| 2026-05-08 19:07 | 40.58119 | -73.90094 | 4424 ft | 257 kts | 169° |
| 2026-05-08 19:07 | 40.56582 | -73.88792 | 4775 ft | 276 kts | 134° |
| 2026-05-08 19:08 | 40.55480 | -73.86688 | 5294 ft | 282 kts | 126° |
| 2026-05-08 19:08 | 40.54203 | -73.84729 | 5654 ft | 280 kts | 151° |
| 2026-05-08 19:08 | 40.52453 | -73.83880 | 6113 ft | 264 kts | 184° |
| 2026-05-08 19:08 | 40.50663 | -73.84019 | 6628 ft | 261 kts | 194° |
| 2026-05-08 19:09 | 40.48809 | -73.83986 | 6897 ft | 280 kts | 173° |
| 2026-05-08 19:09 | 40.47028 | -73.82792 | 6989 ft | 295 kts | 144° |
| 2026-05-08 19:09 | 40.45610 | -73.80789 | 6981 ft | 301 kts | 128° |
| 2026-05-08 19:09 | 40.44782 | -73.78314 | 6992 ft | 304 kts | 102° |
| 2026-05-08 19:10 | 40.44659 | -73.75529 | 6979 ft | 306 kts | 81° |
| 2026-05-08 19:10 | 40.45290 | -73.72923 | 6995 ft | 303 kts | 59° |
| 2026-05-08 19:10 | 40.46348 | -73.70559 | 7093 ft | 300 kts | 53° |
| 2026-05-08 19:10 | 40.47418 | -73.68173 | 7278 ft | 303 kts | 57° |
| 2026-05-08 19:11 | 40.48448 | -73.65738 | 7627 ft | 305 kts | 57° |
| 2026-05-08 19:11 | 40.49469 | -73.63293 | 8188 ft | 306 kts | 57° |
| 2026-05-08 19:11 | 40.50462 | -73.60852 | 8775 ft | 308 kts | 60° |
| 2026-05-08 19:11 | 40.51155 | -73.58174 | 9334 ft | 314 kts | 76° |
| 2026-05-08 19:12 | 40.51493 | -73.55341 | 9898 ft | 317 kts | 81° |
| 2026-05-08 19:12 | 40.51743 | -73.52420 | 10288 ft | 325 kts | 82° |
| 2026-05-08 19:12 | 40.51981 | -73.49414 | 10546 ft | 337 kts | 82° |
| 2026-05-08 19:12 | 40.52223 | -73.46372 | 10842 ft | 348 kts | 82° |
| 2026-05-08 19:13 | 40.52491 | -73.43059 | 11183 ft | 358 kts | 81° |
| 2026-05-08 19:13 | 40.52759 | -73.39810 | 11530 ft | 368 kts | 81° |
| 2026-05-08 19:13 | 40.53042 | -73.36424 | 11893 ft | 377 kts | 81° |
| 2026-05-08 19:13 | 40.53330 | -73.32975 | 12253 ft | 386 kts | 81° |
| 2026-05-08 19:14 | 40.53620 | -73.29498 | 12596 ft | 394 kts | 81° |
| 2026-05-08 19:14 | 40.53924 | -73.25836 | 12964 ft | 402 kts | 81° |
| 2026-05-08 19:14 | 40.54234 | -73.22097 | 13320 ft | 410 kts | 80° |
| 2026-05-08 19:14 | 40.54543 | -73.18338 | 13677 ft | 418 kts | 80° |
| 2026-05-08 19:15 | 40.54857 | -73.14500 | 13971 ft | 426 kts | 80° |
| 2026-05-08 19:15 | 40.55166 | -73.10704 | 14277 ft | 433 kts | 80° |
| 2026-05-08 19:15 | 40.55484 | -73.06777 | 14633 ft | 438 kts | 81° |
| 2026-05-08 19:15 | 40.55721 | -73.03938 | 14890 ft | 441 kts | 79° |
| 2026-05-08 19:17 | 40.56050 | -73.01309 | 15147 ft | 441 kts | 73° |
| 2026-05-08 19:17 | 40.56871 | -72.97389 | 15535 ft | 443 kts | 68° |
| 2026-05-08 19:17 | 40.57816 | -72.93555 | 15925 ft | 446 kts | 67° |
| 2026-05-08 19:17 | 40.58812 | -72.89721 | 16320 ft | 450 kts | 66° |
| 2026-05-08 19:18 | 40.59841 | -72.85810 | 16717 ft | 454 kts | 66° |
| 2026-05-08 19:18 | 40.60868 | -72.81891 | 17125 ft | 457 kts | 67° |
| 2026-05-08 19:18 | 40.61892 | -72.77941 | 17526 ft | 461 kts | 67° |
| 2026-05-08 19:18 | 40.62939 | -72.73865 | 17933 ft | 465 kts | 68° |
| 2026-05-08 19:19 | 40.63974 | -72.69809 | 18329 ft | 469 kts | 68° |
| 2026-05-08 19:19 | 40.65002 | -72.65762 | 18692 ft | 473 kts | 68° |
| 2026-05-08 19:19 | 40.66045 | -72.61644 | 19047 ft | 476 kts | 68° |
| 2026-05-08 19:19 | 40.67086 | -72.57527 | 19419 ft | 480 kts | 68° |
| 2026-05-08 19:20 | 40.68155 | -72.53299 | 19803 ft | 483 kts | 68° |
| 2026-05-08 19:20 | 40.68509 | -72.51896 | 19927 ft | 484 kts | 68° |
| 2026-05-08 19:20 | 40.70289 | -72.44839 | 20576 ft | 490 kts | 68° |
| 2026-05-08 19:20 | 40.71365 | -72.40561 | 20968 ft | 493 kts | 68° |
| 2026-05-08 19:21 | 40.72425 | -72.36341 | 21329 ft | 497 kts | 68° |
| 2026-05-08 19:21 | 40.73532 | -72.31923 | 21698 ft | 500 kts | 68° |
| 2026-05-08 19:21 | 40.74614 | -72.27598 | 22093 ft | 503 kts | 68° |
| 2026-05-08 19:21 | 40.75714 | -72.23196 | 22475 ft | 507 kts | 68° |
| 2026-05-08 19:22 | 40.76820 | -72.18758 | 22835 ft | 510 kts | 68° |
| 2026-05-08 19:22 | 40.77916 | -72.14353 | 23213 ft | 514 kts | 68° |
| 2026-05-08 19:22 | 40.79036 | -72.09842 | 23572 ft | 517 kts | 68° |
| 2026-05-08 19:22 | 40.80160 | -72.05309 | 23876 ft | 520 kts | 68° |
| 2026-05-08 19:23 | 40.81272 | -72.00816 | 24175 ft | 523 kts | 68° |
| 2026-05-08 19:23 | 40.82416 | -71.96181 | 24507 ft | 526 kts | 68° |
| 2026-05-08 19:23 | 40.83534 | -71.91643 | 24814 ft | 529 kts | 68° |
| 2026-05-08 19:23 | 40.84647 | -71.87116 | 25122 ft | 531 kts | 68° |
| 2026-05-08 19:24 | 40.85777 | -71.82516 | 25425 ft | 534 kts | 68° |
| 2026-05-08 19:24 | 40.86925 | -71.77828 | 25742 ft | 537 kts | 68° |
| 2026-05-08 19:24 | 40.88055 | -71.73206 | 26034 ft | 539 kts | 68° |
| 2026-05-08 19:24 | 40.89210 | -71.68476 | 26332 ft | 542 kts | 68° |
| 2026-05-08 19:25 | 40.90383 | -71.63659 | 26641 ft | 544 kts | 68° |
| 2026-05-08 19:25 | 40.91543 | -71.58885 | 26926 ft | 547 kts | 68° |
| 2026-05-08 19:25 | 40.92710 | -71.54072 | 27203 ft | 550 kts | 68° |
| 2026-05-08 19:25 | 40.93876 | -71.49257 | 27465 ft | 553 kts | 68° |
| 2026-05-08 19:26 | 40.95036 | -71.44456 | 27733 ft | 556 kts | 68° |
| 2026-05-08 19:26 | 40.96209 | -71.39589 | 27994 ft | 558 kts | 68° |
| 2026-05-08 19:26 | 40.97392 | -71.34668 | 28259 ft | 561 kts | 68° |
| 2026-05-08 19:26 | 40.98567 | -71.29774 | 28512 ft | 563 kts | 68° |
| 2026-05-08 19:27 | 40.99754 | -71.24818 | 28754 ft | 565 kts | 68° |
| 2026-05-08 19:27 | 41.00944 | -71.19832 | 29107 ft | 565 kts | 68° |
| 2026-05-08 19:27 | 41.02126 | -71.14868 | 29433 ft | 566 kts | 68° |
| 2026-05-08 19:27 | 41.03311 | -71.09886 | 29731 ft | 567 kts | 68° |
| 2026-05-08 19:28 | 41.04493 | -71.04909 | 30031 ft | 567 kts | 68° |
| 2026-05-08 19:28 | 41.05656 | -70.99996 | 30294 ft | 567 kts | 68° |
| 2026-05-08 19:28 | 41.06827 | -70.95038 | 30571 ft | 566 kts | 68° |
| 2026-05-08 19:28 | 41.08002 | -70.90058 | 30842 ft | 566 kts | 68° |
| 2026-05-08 19:29 | 41.09180 | -70.85049 | 31105 ft | 566 kts | 68° |
| 2026-05-08 19:29 | 41.10342 | -70.80100 | 31350 ft | 565 kts | 68° |
| 2026-05-08 19:29 | 41.12728 | -70.69908 | 31862 ft | 564 kts | 68° |
| 2026-05-08 19:30 | 41.13869 | -70.65018 | 32105 ft | 564 kts | 69° |
| 2026-05-08 19:30 | 41.15016 | -70.60090 | 32333 ft | 563 kts | 69° |
| 2026-05-08 19:30 | 41.16176 | -70.55093 | 32574 ft | 562 kts | 69° |
| 2026-05-08 19:30 | 41.17324 | -70.50139 | 32823 ft | 562 kts | 69° |
| 2026-05-08 19:31 | 41.18472 | -70.45177 | 32914 ft | 564 kts | 69° |
| 2026-05-08 19:31 | 41.20792 | -70.35127 | 32919 ft | 571 kts | 69° |
| 2026-05-08 19:32 | 41.23105 | -70.25040 | 32903 ft | 569 kts | 69° |
| 2026-05-08 19:32 | 41.25378 | -70.15077 | 32923 ft | 567 kts | 70° |
| 2026-05-08 19:33 | 41.27837 | -70.05130 | 32927 ft | 562 kts | 61° |
| 2026-05-08 19:33 | 41.29711 | -70.00633 | 32929 ft | 552 kts | 49° |
| 2026-05-08 19:33 | 41.32031 | -69.96679 | 32912 ft | 546 kts | 44° |
| 2026-05-08 19:34 | 41.37001 | -69.88968 | 32914 ft | 546 kts | 43° |
| 2026-05-08 19:34 | 41.41950 | -69.81379 | 32911 ft | 546 kts | 43° |
| 2026-05-08 19:35 | 41.46892 | -69.73737 | 32906 ft | 545 kts | 43° |
| 2026-05-08 19:35 | 41.51827 | -69.66052 | 32903 ft | 545 kts | 43° |
| 2026-05-08 19:36 | 41.56719 | -69.58411 | 32902 ft | 545 kts | 43° |
| 2026-05-08 19:36 | 41.61646 | -69.50695 | 32909 ft | 546 kts | 43° |
| 2026-05-08 19:37 | 41.66572 | -69.42964 | 32913 ft | 546 kts | 43° |
| 2026-05-08 19:37 | 41.71482 | -69.35237 | 32909 ft | 547 kts | 43° |
| 2026-05-08 19:38 | 41.76403 | -69.27473 | 32894 ft | 548 kts | 43° |
| 2026-05-08 19:38 | 41.81311 | -69.19709 | 32898 ft | 548 kts | 44° |
| 2026-05-08 19:39 | 41.86150 | -69.12034 | 32908 ft | 549 kts | 44° |
| 2026-05-08 19:39 | 41.91065 | -69.04219 | 32904 ft | 550 kts | 44° |
| 2026-05-08 19:40 | 41.96019 | -68.96322 | 32905 ft | 551 kts | 44° |
| 2026-05-08 19:40 | 42.00908 | -68.88506 | 32898 ft | 551 kts | 44° |
| 2026-05-08 19:41 | 42.05844 | -68.80595 | 32902 ft | 551 kts | 44° |
| 2026-05-08 19:41 | 42.10746 | -68.72718 | 32900 ft | 552 kts | 45° |
| 2026-05-08 19:42 | 42.15691 | -68.64749 | 32899 ft | 552 kts | 45° |
| 2026-05-08 19:42 | 42.20580 | -68.56852 | 32897 ft | 552 kts | 45° |
| 2026-05-08 19:43 | 42.25482 | -68.48910 | 32897 ft | 552 kts | 45° |
| 2026-05-08 19:43 | 42.30393 | -68.40935 | 32897 ft | 552 kts | 45° |
| 2026-05-08 19:44 | 42.35292 | -68.32957 | 32893 ft | 551 kts | 45° |
| 2026-05-08 19:44 | 42.40166 | -68.24997 | 32891 ft | 551 kts | 46° |
| 2026-05-08 19:45 | 42.45027 | -68.17039 | 32889 ft | 551 kts | 46° |
| 2026-05-08 19:45 | 42.49945 | -68.08964 | 32885 ft | 551 kts | 46° |
| 2026-05-08 19:46 | 42.54772 | -68.01018 | 32885 ft | 551 kts | 46° |
| 2026-05-08 19:46 | 42.62063 | -67.88975 | 32880 ft | 551 kts | 47° |
| 2026-05-08 19:47 | 42.66949 | -67.80878 | 32877 ft | 551 kts | 47° |
| 2026-05-08 19:47 | 42.71793 | -67.72826 | 32883 ft | 552 kts | 47° |
| 2026-05-08 19:48 | 42.76651 | -67.64731 | 32862 ft | 552 kts | 47° |
| 2026-05-08 19:48 | 42.81461 | -67.56692 | 32870 ft | 552 kts | 47° |
| 2026-05-08 19:49 | 42.85478 | -67.49964 | 32866 ft | 553 kts | 47° |
| 2026-05-08 19:49 | 42.91165 | -67.40409 | 32867 ft | 553 kts | 48° |
| 2026-05-08 19:50 | 42.95196 | -67.33619 | 32868 ft | 554 kts | 48° |
| 2026-05-08 19:50 | 43.00812 | -67.24133 | 32862 ft | 554 kts | 48° |
| 2026-05-08 19:51 | 43.05658 | -67.15922 | 32857 ft | 554 kts | 49° |
| 2026-05-08 19:51 | 43.10502 | -67.07691 | 32859 ft | 554 kts | 49° |
| 2026-05-08 19:52 | 43.15293 | -66.99530 | 32848 ft | 554 kts | 49° |
| 2026-05-08 19:52 | 43.20259 | -66.91448 | 32846 ft | 553 kts | 46° |
| 2026-05-08 19:53 | 43.24518 | -66.84820 | 32842 ft | 553 kts | 46° |
| 2026-05-08 19:53 | 43.29541 | -66.76939 | 32842 ft | 553 kts | 46° |
| 2026-05-08 19:54 | 43.34575 | -66.68931 | 32838 ft | 553 kts | 47° |
| 2026-05-08 19:54 | 43.40376 | -66.59641 | 32833 ft | 552 kts | 47° |
| 2026-05-08 19:55 | 43.45371 | -66.51619 | 32832 ft | 552 kts | 47° |
| 2026-05-08 19:55 | 43.50355 | -66.43595 | 32827 ft | 552 kts | 47° |
| 2026-05-08 19:56 | 43.54522 | -66.36871 | 32828 ft | 552 kts | 47° |
| 2026-05-08 19:56 | 43.59493 | -66.28830 | 32823 ft | 552 kts | 47° |
| 2026-05-08 19:57 | 43.64475 | -66.20748 | 32816 ft | 552 kts | 48° |
| 2026-05-08 19:57 | 43.69421 | -66.12700 | 32814 ft | 552 kts | 48° |
| 2026-05-08 19:58 | 43.74371 | -66.04624 | 32817 ft | 552 kts | 48° |
| 2026-05-08 19:58 | 43.79339 | -65.96497 | 32814 ft | 552 kts | 48° |
| 2026-05-08 19:59 | 43.84281 | -65.88389 | 32816 ft | 553 kts | 48° |
| 2026-05-08 19:59 | 43.89211 | -65.80279 | 32811 ft | 553 kts | 49° |
| 2026-05-08 20:00 | 43.94153 | -65.72125 | 32806 ft | 553 kts | 49° |
| 2026-05-08 20:00 | 43.99092 | -65.63952 | 32794 ft | 553 kts | 49° |
| 2026-05-08 20:01 | 44.04049 | -65.55728 | 32772 ft | 553 kts | 49° |
| 2026-05-08 20:01 | 44.08944 | -65.47582 | 32781 ft | 554 kts | 49° |
| 2026-05-08 20:02 | 44.13874 | -65.39353 | 32755 ft | 554 kts | 49° |
| 2026-05-08 20:02 | 44.18804 | -65.31104 | 32771 ft | 554 kts | 49° |
| 2026-05-08 20:03 | 44.23751 | -65.22800 | 32766 ft | 555 kts | 50° |
| 2026-05-08 20:03 | 44.28665 | -65.14528 | 32747 ft | 555 kts | 50° |
| 2026-05-08 20:04 | 44.33551 | -65.06281 | 32754 ft | 555 kts | 50° |
| 2026-05-08 20:04 | 44.38470 | -64.97952 | 32727 ft | 556 kts | 50° |
| 2026-05-08 20:05 | 44.43371 | -64.89632 | 32738 ft | 556 kts | 50° |
| 2026-05-08 20:05 | 44.48291 | -64.81251 | 32719 ft | 557 kts | 50° |
| 2026-05-08 20:06 | 44.53205 | -64.72860 | 32727 ft | 556 kts | 50° |
| 2026-05-08 20:06 | 44.58087 | -64.64495 | 32705 ft | 556 kts | 50° |
| 2026-05-08 20:07 | 44.62966 | -64.56113 | 32696 ft | 556 kts | 51° |
| 2026-05-08 20:07 | 44.67859 | -64.47683 | 32707 ft | 556 kts | 51° |
| 2026-05-08 20:08 | 44.72725 | -64.39273 | 32681 ft | 556 kts | 51° |
| 2026-05-08 20:08 | 44.77632 | -64.30769 | 32697 ft | 556 kts | 51° |
| 2026-05-08 20:09 | 44.82466 | -64.22366 | 32695 ft | 557 kts | 51° |
| 2026-05-08 20:09 | 44.87326 | -64.13892 | 32693 ft | 556 kts | 51° |
| 2026-05-08 20:10 | 44.92174 | -64.05412 | 32694 ft | 557 kts | 52° |
| 2026-05-08 20:10 | 44.97036 | -63.96884 | 32694 ft | 557 kts | 52° |
| 2026-05-08 20:11 | 45.01861 | -63.88396 | 32694 ft | 556 kts | 52° |
| 2026-05-08 20:11 | 45.06687 | -63.79879 | 32692 ft | 557 kts | 52° |
| 2026-05-08 20:12 | 45.11540 | -63.71291 | 32688 ft | 557 kts | 52° |
| 2026-05-08 20:12 | 45.16252 | -63.62925 | 32688 ft | 557 kts | 52° |
| 2026-05-08 20:13 | 45.21077 | -63.54336 | 32686 ft | 557 kts | 53° |
| 2026-05-08 20:13 | 45.25860 | -63.45792 | 32688 ft | 557 kts | 53° |
| 2026-05-08 20:14 | 45.30677 | -63.37164 | 32685 ft | 557 kts | 53° |
| 2026-05-08 20:14 | 45.35473 | -63.28547 | 32684 ft | 557 kts | 53° |
| 2026-05-08 20:15 | 45.40277 | -63.19889 | 32686 ft | 557 kts | 53° |
| 2026-05-08 20:15 | 45.45063 | -63.11237 | 32681 ft | 557 kts | 54° |
| 2026-05-08 20:16 | 45.49820 | -63.02609 | 32684 ft | 557 kts | 54° |
| 2026-05-08 20:16 | 45.54590 | -62.93934 | 32688 ft | 557 kts | 54° |
| 2026-05-08 20:17 | 45.59368 | -62.85217 | 32688 ft | 558 kts | 54° |
| 2026-05-08 20:17 | 45.64119 | -62.76521 | 32687 ft | 558 kts | 55° |
| 2026-05-08 20:18 | 45.68912 | -62.67723 | 32689 ft | 557 kts | 55° |
| 2026-05-08 20:18 | 45.73608 | -62.59073 | 32690 ft | 557 kts | 55° |
| 2026-05-08 20:19 | 45.78387 | -62.50247 | 32687 ft | 558 kts | 56° |
| 2026-05-08 20:19 | 45.83142 | -62.41436 | 32699 ft | 558 kts | 56° |
| 2026-05-08 20:20 | 45.87847 | -62.32690 | 32695 ft | 558 kts | 56° |
| 2026-05-08 20:20 | 45.92582 | -62.23860 | 32699 ft | 559 kts | 56° |
| 2026-05-08 20:21 | 45.97311 | -62.15013 | 32698 ft | 559 kts | 57° |
| 2026-05-08 20:21 | 46.02039 | -62.06140 | 32698 ft | 560 kts | 57° |
| 2026-05-08 20:22 | 46.06762 | -61.97250 | 32702 ft | 561 kts | 57° |
| 2026-05-08 20:22 | 46.11480 | -61.88341 | 32697 ft | 561 kts | 57° |
| 2026-05-08 20:23 | 46.16217 | -61.79370 | 32694 ft | 561 kts | 58° |
| 2026-05-08 20:23 | 46.20911 | -61.70449 | 32688 ft | 561 kts | 58° |
| 2026-05-08 20:24 | 46.25639 | -61.61434 | 32687 ft | 562 kts | 58° |
| 2026-05-08 20:24 | 46.30370 | -61.52383 | 32686 ft | 562 kts | 58° |
| 2026-05-08 20:25 | 46.35043 | -61.43415 | 32679 ft | 562 kts | 59° |
| 2026-05-08 20:25 | 46.39738 | -61.34378 | 32689 ft | 563 kts | 59° |
| 2026-05-08 20:26 | 46.44422 | -61.25330 | 32675 ft | 562 kts | 59° |
| 2026-05-08 20:26 | 46.49136 | -61.16196 | 32674 ft | 562 kts | 59° |
| 2026-05-08 20:27 | 46.53807 | -61.07116 | 32670 ft | 562 kts | 59° |
| 2026-05-08 20:27 | 46.58434 | -60.98091 | 32670 ft | 561 kts | 59° |
| 2026-05-08 20:28 | 46.63068 | -60.89023 | 32679 ft | 560 kts | 59° |
| 2026-05-08 20:28 | 46.67730 | -60.79873 | 32668 ft | 559 kts | 59° |
| 2026-05-08 20:29 | 46.72313 | -60.70848 | 32666 ft | 558 kts | 60° |
| 2026-05-08 20:29 | 46.76929 | -60.61725 | 32663 ft | 557 kts | 60° |
| 2026-05-08 20:30 | 46.81505 | -60.52653 | 32674 ft | 557 kts | 60° |
| 2026-05-08 20:30 | 46.86096 | -60.43518 | 32672 ft | 556 kts | 60° |
| 2026-05-08 20:31 | 46.90638 | -60.34456 | 32678 ft | 555 kts | 60° |
| 2026-05-08 20:31 | 46.95192 | -60.25338 | 32679 ft | 555 kts | 60° |
| 2026-05-08 20:32 | 46.99735 | -60.16214 | 32675 ft | 554 kts | 60° |
| 2026-05-08 20:32 | 47.04264 | -60.07086 | 32678 ft | 554 kts | 61° |
| 2026-05-08 20:33 | 47.08760 | -59.97994 | 32667 ft | 554 kts | 61° |
| 2026-05-08 20:33 | 47.13268 | -59.88848 | 32683 ft | 554 kts | 61° |
| 2026-05-08 20:34 | 47.17776 | -59.79673 | 32666 ft | 554 kts | 62° |
| 2026-05-08 20:35 | 47.24516 | -59.65897 | 32655 ft | 554 kts | 62° |
| 2026-05-08 20:35 | 47.29017 | -59.56660 | 32651 ft | 554 kts | 62° |
| 2026-05-08 20:36 | 47.33458 | -59.47515 | 32641 ft | 554 kts | 63° |
| 2026-05-08 20:36 | 47.37937 | -59.38260 | 32644 ft | 553 kts | 63° |
| 2026-05-08 20:37 | 47.42407 | -59.28993 | 32640 ft | 553 kts | 63° |
| 2026-05-08 20:37 | 47.46846 | -59.19758 | 32638 ft | 553 kts | 64° |
| 2026-05-08 20:38 | 47.51281 | -59.10503 | 32630 ft | 553 kts | 64° |
| 2026-05-08 20:38 | 47.55715 | -59.01216 | 32624 ft | 553 kts | 64° |
| 2026-05-08 20:39 | 47.60123 | -58.91954 | 32623 ft | 553 kts | 64° |
| 2026-05-08 20:39 | 47.64572 | -58.82569 | 32621 ft | 553 kts | 65° |
| 2026-05-08 20:40 | 47.68956 | -58.73295 | 32620 ft | 553 kts | 65° |
| 2026-05-08 20:40 | 47.73343 | -58.63982 | 32612 ft | 554 kts | 65° |
| 2026-05-08 20:41 | 47.77765 | -58.54559 | 32618 ft | 555 kts | 65° |
| 2026-05-08 20:41 | 47.82178 | -58.45122 | 32612 ft | 555 kts | 65° |
| 2026-05-08 20:42 | 47.86571 | -58.35701 | 32611 ft | 556 kts | 66° |
| 2026-05-08 20:42 | 47.90966 | -58.26242 | 32602 ft | 556 kts | 66° |
| 2026-05-08 20:43 | 47.95368 | -58.16726 | 32607 ft | 558 kts | 66° |
| 2026-05-08 20:43 | 47.99764 | -58.07206 | 32607 ft | 558 kts | 66° |
| 2026-05-08 20:44 | 48.04132 | -57.97712 | 32605 ft | 558 kts | 66° |
| 2026-05-08 20:44 | 48.08555 | -57.88056 | 32595 ft | 559 kts | 66° |
| 2026-05-08 20:45 | 48.12910 | -57.78516 | 32605 ft | 559 kts | 66° |
| 2026-05-08 20:45 | 48.17270 | -57.68934 | 32609 ft | 559 kts | 66° |
| 2026-05-08 20:46 | 48.21631 | -57.59311 | 32610 ft | 559 kts | 66° |
| 2026-05-08 20:46 | 48.25986 | -57.49672 | 32614 ft | 559 kts | 66° |
| 2026-05-08 20:47 | 48.30334 | -57.40014 | 32620 ft | 560 kts | 66° |
| 2026-05-08 20:47 | 48.34676 | -57.30335 | 32623 ft | 560 kts | 66° |
| 2026-05-08 20:48 | 48.39021 | -57.20613 | 32623 ft | 560 kts | 66° |
| 2026-05-08 20:48 | 48.43348 | -57.10898 | 32617 ft | 560 kts | 66° |
| 2026-05-08 20:49 | 48.47678 | -57.01140 | 32613 ft | 561 kts | 66° |
| 2026-05-08 20:49 | 48.52002 | -56.91360 | 32604 ft | 561 kts | 66° |
| 2026-05-08 20:50 | 48.56334 | -56.81524 | 32593 ft | 562 kts | 66° |
| 2026-05-08 20:50 | 48.60621 | -56.71761 | 32598 ft | 562 kts | 66° |
| 2026-05-08 20:51 | 48.64934 | -56.61901 | 32600 ft | 562 kts | 66° |
| 2026-05-08 20:51 | 48.69237 | -56.52026 | 32614 ft | 563 kts | 66° |
| 2026-05-08 20:52 | 48.73521 | -56.42161 | 32606 ft | 563 kts | 66° |
| 2026-05-08 20:52 | 48.77842 | -56.32172 | 32609 ft | 562 kts | 66° |
| 2026-05-08 20:53 | 48.82081 | -56.22342 | 32614 ft | 562 kts | 66° |
| 2026-05-08 20:53 | 48.86336 | -56.12433 | 32624 ft | 562 kts | 66° |
| 2026-05-08 20:54 | 48.90609 | -56.02444 | 32624 ft | 561 kts | 66° |
| 2026-05-08 20:54 | 48.94858 | -55.92472 | 32630 ft | 560 kts | 66° |
| 2026-05-08 20:55 | 48.99049 | -55.82603 | 32634 ft | 560 kts | 65° |
| 2026-05-08 20:55 | 49.03270 | -55.72626 | 32635 ft | 559 kts | 66° |
| 2026-05-08 20:56 | 49.07468 | -55.62665 | 32646 ft | 559 kts | 66° |
| 2026-05-08 20:56 | 49.11643 | -55.52721 | 32643 ft | 559 kts | 66° |
| 2026-05-08 20:57 | 49.15825 | -55.42727 | 32648 ft | 558 kts | 66° |
| 2026-05-08 20:57 | 49.19987 | -55.32738 | 32646 ft | 558 kts | 66° |
| 2026-05-08 20:58 | 49.24150 | -55.22712 | 32646 ft | 558 kts | 66° |
| 2026-05-08 20:58 | 49.28291 | -55.12704 | 32648 ft | 558 kts | 66° |
| 2026-05-08 20:59 | 49.32416 | -55.02694 | 32647 ft | 558 kts | 66° |
| 2026-05-08 20:59 | 49.36554 | -54.92612 | 32642 ft | 558 kts | 66° |
| 2026-05-08 21:00 | 49.40676 | -54.82533 | 32643 ft | 558 kts | 66° |
| 2026-05-08 21:00 | 49.44810 | -54.72388 | 32639 ft | 558 kts | 66° |
| 2026-05-08 21:01 | 49.48923 | -54.62256 | 32638 ft | 559 kts | 66° |
| 2026-05-08 21:01 | 49.53000 | -54.52169 | 32643 ft | 559 kts | 66° |
| 2026-05-08 21:02 | 49.57078 | -54.42045 | 32640 ft | 559 kts | 66° |
| 2026-05-08 21:02 | 49.61177 | -54.31829 | 32641 ft | 559 kts | 66° |
| 2026-05-08 21:03 | 49.65260 | -54.21612 | 32656 ft | 559 kts | 66° |
| 2026-05-08 21:03 | 49.69315 | -54.11428 | 32650 ft | 559 kts | 66° |
| 2026-05-08 21:04 | 49.73367 | -54.01212 | 32649 ft | 559 kts | 66° |
| 2026-05-08 21:04 | 49.77416 | -53.90961 | 32642 ft | 559 kts | 65° |
| 2026-05-08 21:05 | 49.81460 | -53.80684 | 32649 ft | 559 kts | 66° |
| 2026-05-08 21:05 | 49.85478 | -53.70435 | 32660 ft | 559 kts | 65° |
| 2026-05-08 21:06 | 49.89511 | -53.60105 | 32656 ft | 559 kts | 65° |
| 2026-05-08 21:06 | 49.93500 | -53.49851 | 32658 ft | 558 kts | 65° |
| 2026-05-08 21:07 | 49.97494 | -53.39539 | 32658 ft | 558 kts | 66° |
| 2026-05-08 21:07 | 50.01509 | -53.29134 | 32671 ft | 558 kts | 65° |
| 2026-05-08 21:08 | 50.05465 | -53.18842 | 32674 ft | 557 kts | 66° |
| 2026-05-08 21:08 | 50.09429 | -53.08486 | 32688 ft | 557 kts | 66° |
| 2026-05-08 21:09 | 50.13383 | -52.98114 | 32667 ft | 556 kts | 66° |
| 2026-05-08 21:09 | 50.17323 | -52.87738 | 32685 ft | 557 kts | 66° |
| 2026-05-08 21:10 | 50.21253 | -52.77346 | 32685 ft | 556 kts | 66° |
| 2026-05-08 21:10 | 50.25135 | -52.67036 | 32687 ft | 555 kts | 66° |
| 2026-05-08 21:11 | 50.29048 | -52.56608 | 32696 ft | 555 kts | 66° |
| 2026-05-08 21:11 | 50.32944 | -52.46188 | 32700 ft | 554 kts | 66° |
| 2026-05-08 21:12 | 50.36823 | -52.35767 | 32707 ft | 554 kts | 66° |
| 2026-05-08 21:12 | 50.40659 | -52.25418 | 32707 ft | 553 kts | 66° |
| 2026-05-08 21:13 | 50.44510 | -52.14989 | 32712 ft | 553 kts | 66° |
| 2026-05-08 21:13 | 50.48347 | -52.04557 | 32721 ft | 552 kts | 66° |
| 2026-05-08 21:14 | 50.51643 | -51.93768 | 32721 ft | 544 kts | 73° |
| 2026-05-08 21:14 | 50.54519 | -51.82805 | 32725 ft | 542 kts | 74° |
| 2026-05-08 21:15 | 50.56757 | -51.74110 | 32727 ft | 542 kts | 75° |
| 2026-05-08 21:15 | 50.58817 | -51.66081 | 32734 ft | 541 kts | 74° |
| 2026-05-08 21:16 | 50.61168 | -51.56908 | 32736 ft | 541 kts | 74° |
| 2026-05-08 21:16 | 50.63826 | -51.46511 | 32741 ft | 541 kts | 74° |
| 2026-05-08 21:17 | 50.65680 | -51.39238 | 32744 ft | 540 kts | 74° |
| 2026-05-08 21:17 | 50.67553 | -51.31865 | 32748 ft | 540 kts | 74° |
| 2026-05-08 21:18 | 50.70319 | -51.20927 | 32754 ft | 540 kts | 74° |
| 2026-05-08 21:18 | 50.73084 | -51.09942 | 32751 ft | 540 kts | 74° |
| 2026-05-08 21:19 | 50.75852 | -50.98892 | 32768 ft | 540 kts | 74° |
| 2026-05-08 21:19 | 50.78605 | -50.87844 | 32776 ft | 540 kts | 74° |
| 2026-05-08 21:20 | 50.81246 | -50.77194 | 32777 ft | 540 kts | 74° |
| 2026-05-08 21:20 | 50.83956 | -50.66215 | 32782 ft | 540 kts | 74° |
| 2026-05-08 21:21 | 50.86665 | -50.55183 | 32791 ft | 540 kts | 74° |
| 2026-05-08 21:21 | 50.89388 | -50.44035 | 32797 ft | 541 kts | 74° |
| 2026-05-08 21:22 | 50.92079 | -50.32968 | 32798 ft | 541 kts | 74° |
| 2026-05-08 21:22 | 50.94769 | -50.21844 | 32805 ft | 541 kts | 74° |
| 2026-05-08 21:23 | 50.97456 | -50.10677 | 32809 ft | 541 kts | 74° |
| 2026-05-08 21:23 | 51.00121 | -49.99550 | 32814 ft | 540 kts | 74° |
| 2026-05-08 21:24 | 51.02869 | -49.88442 | 32815 ft | 541 kts | 72° |
| 2026-05-08 21:24 | 51.05673 | -49.77415 | 32824 ft | 540 kts | 72° |
| 2026-05-08 21:25 | 51.08460 | -49.66350 | 32826 ft | 539 kts | 73° |
| 2026-05-08 21:25 | 51.11226 | -49.55241 | 32844 ft | 539 kts | 73° |
| 2026-05-08 21:26 | 51.13964 | -49.44163 | 32844 ft | 538 kts | 73° |
| 2026-05-08 21:26 | 51.16666 | -49.33179 | 32846 ft | 537 kts | 73° |
| 2026-05-08 21:27 | 51.19388 | -49.22062 | 32845 ft | 537 kts | 73° |
| 2026-05-08 21:27 | 51.22087 | -49.10980 | 32851 ft | 536 kts | 73° |
| 2026-05-08 21:28 | 51.24778 | -48.99879 | 32860 ft | 536 kts | 73° |
| 2026-05-08 21:28 | 51.27443 | -48.88828 | 32870 ft | 535 kts | 73° |
| 2026-05-08 21:29 | 51.30112 | -48.77703 | 32869 ft | 535 kts | 73° |
| 2026-05-08 21:29 | 51.32740 | -48.66692 | 32879 ft | 534 kts | 73° |
| 2026-05-08 21:30 | 51.35379 | -48.55581 | 32886 ft | 534 kts | 73° |
| 2026-05-08 21:30 | 51.38012 | -48.44438 | 32889 ft | 534 kts | 73° |
| 2026-05-08 21:31 | 51.40627 | -48.33315 | 32898 ft | 534 kts | 73° |
| 2026-05-08 21:31 | 51.43208 | -48.22275 | 32903 ft | 533 kts | 73° |
| 2026-05-08 21:32 | 51.45791 | -48.11174 | 32906 ft | 533 kts | 73° |
| 2026-05-08 21:32 | 51.48385 | -47.99964 | 32912 ft | 533 kts | 73° |
| 2026-05-08 21:33 | 51.50955 | -47.88803 | 32918 ft | 533 kts | 73° |
| 2026-05-08 21:33 | 51.53510 | -47.77646 | 32924 ft | 533 kts | 73° |
| 2026-05-08 21:34 | 51.56043 | -47.66524 | 32929 ft | 533 kts | 73° |
| 2026-05-08 21:34 | 51.58577 | -47.55344 | 32939 ft | 533 kts | 73° |
| 2026-05-08 21:35 | 51.61112 | -47.44097 | 32944 ft | 533 kts | 73° |
| 2026-05-08 21:35 | 51.63622 | -47.32901 | 32948 ft | 533 kts | 73° |
| 2026-05-08 21:36 | 51.66112 | -47.21735 | 32955 ft | 532 kts | 73° |
| 2026-05-08 21:36 | 51.68594 | -47.10543 | 32960 ft | 532 kts | 73° |
| 2026-05-08 21:37 | 51.71073 | -46.99307 | 32968 ft | 532 kts | 73° |
| 2026-05-08 21:37 | 51.73529 | -46.88115 | 32973 ft | 532 kts | 73° |
| 2026-05-08 21:38 | 51.75983 | -46.76871 | 32979 ft | 531 kts | 73° |
| 2026-05-08 21:38 | 51.78429 | -46.65603 | 32984 ft | 531 kts | 73° |
| 2026-05-08 21:39 | 51.80861 | -46.54334 | 32992 ft | 531 kts | 73° |
| 2026-05-08 21:39 | 51.83282 | -46.43055 | 32999 ft | 531 kts | 73° |
| 2026-05-08 21:40 | 51.85686 | -46.31794 | 33007 ft | 530 kts | 73° |
| 2026-05-08 21:40 | 51.88070 | -46.20564 | 33014 ft | 530 kts | 73° |
| 2026-05-08 21:41 | 51.91640 | -46.03631 | 33018 ft | 530 kts | 73° |
| 2026-05-08 21:41 | 51.93996 | -45.92375 | 33039 ft | 530 kts | 73° |
| 2026-05-08 21:42 | 51.96367 | -45.80985 | 33039 ft | 530 kts | 73° |
| 2026-05-08 21:42 | 51.98698 | -45.69721 | 33049 ft | 530 kts | 73° |
| 2026-05-08 21:43 | 52.01022 | -45.58430 | 33056 ft | 529 kts | 73° |
| 2026-05-08 21:43 | 52.03344 | -45.47089 | 33066 ft | 529 kts | 73° |
| 2026-05-08 21:44 | 52.05658 | -45.35718 | 33073 ft | 529 kts | 73° |
| 2026-05-08 21:44 | 52.07952 | -45.24377 | 33081 ft | 528 kts | 73° |
| 2026-05-08 21:45 | 52.10220 | -45.13100 | 33089 ft | 528 kts | 73° |
| 2026-05-08 21:45 | 52.12485 | -45.01777 | 33097 ft | 528 kts | 73° |
| 2026-05-08 21:46 | 52.14742 | -44.90422 | 33102 ft | 527 kts | 73° |
| 2026-05-08 21:46 | 52.16990 | -44.79052 | 33102 ft | 527 kts | 73° |
| 2026-05-08 21:47 | 52.19155 | -44.68032 | 33113 ft | 526 kts | 73° |
| 2026-05-08 21:47 | 52.21380 | -44.56650 | 33121 ft | 526 kts | 73° |
| 2026-05-08 21:48 | 52.23589 | -44.45275 | 33127 ft | 526 kts | 73° |
| 2026-05-08 21:48 | 52.25769 | -44.33980 | 33133 ft | 525 kts | 73° |
| 2026-05-08 21:49 | 52.27953 | -44.22603 | 33143 ft | 525 kts | 73° |
| 2026-05-08 21:49 | 52.30121 | -44.11237 | 33151 ft | 525 kts | 73° |
| 2026-05-08 21:50 | 52.32283 | -43.99835 | 33153 ft | 525 kts | 73° |
| 2026-05-08 21:50 | 52.34431 | -43.88443 | 33163 ft | 525 kts | 73° |
| 2026-05-08 21:51 | 52.36558 | -43.77090 | 33172 ft | 524 kts | 73° |
| 2026-05-08 21:51 | 52.38683 | -43.65682 | 33177 ft | 524 kts | 73° |
| 2026-05-08 21:52 | 52.40797 | -43.54262 | 33178 ft | 524 kts | 73° |
| 2026-05-08 21:52 | 52.42892 | -43.42872 | 33190 ft | 524 kts | 73° |
| 2026-05-08 21:53 | 52.44985 | -43.31415 | 33193 ft | 523 kts | 73° |
| 2026-05-08 21:53 | 52.47064 | -43.19974 | 33201 ft | 523 kts | 73° |
| 2026-05-08 21:54 | 52.49115 | -43.08610 | 33204 ft | 523 kts | 73° |
| 2026-05-08 21:54 | 52.51168 | -42.97160 | 33212 ft | 523 kts | 73° |
| 2026-05-08 21:55 | 52.53210 | -42.85708 | 33218 ft | 523 kts | 73° |
| 2026-05-08 21:56 | 52.56241 | -42.68571 | 33232 ft | 522 kts | 73° |
| 2026-05-08 21:56 | 52.58253 | -42.57099 | 33237 ft | 522 kts | 73° |
| 2026-05-08 21:57 | 52.60251 | -42.45637 | 33236 ft | 522 kts | 73° |
| 2026-05-08 21:57 | 52.62238 | -42.34169 | 33245 ft | 521 kts | 73° |
| 2026-05-08 21:58 | 52.64213 | -42.22686 | 33250 ft | 520 kts | 73° |
| 2026-05-08 21:58 | 52.66167 | -42.11253 | 33256 ft | 519 kts | 73° |
| 2026-05-08 21:59 | 52.68098 | -41.99888 | 33259 ft | 519 kts | 73° |
| 2026-05-08 21:59 | 52.70035 | -41.88416 | 33267 ft | 519 kts | 73° |
| 2026-05-08 22:00 | 52.71956 | -41.76952 | 33273 ft | 518 kts | 73° |
| 2026-05-08 22:00 | 52.73862 | -41.65502 | 33283 ft | 518 kts | 73° |
| 2026-05-08 22:01 | 52.75745 | -41.54115 | 33287 ft | 517 kts | 73° |
| 2026-05-08 22:01 | 52.77626 | -41.42665 | 33288 ft | 517 kts | 73° |
| 2026-05-08 22:02 | 52.79497 | -41.31196 | 33298 ft | 516 kts | 73° |
| 2026-05-08 22:02 | 52.81342 | -41.19807 | 33299 ft | 516 kts | 73° |
| 2026-05-08 22:03 | 52.83183 | -41.08372 | 33309 ft | 515 kts | 73° |
| 2026-05-08 22:03 | 52.85015 | -40.96918 | 33318 ft | 514 kts | 73° |
| 2026-05-08 22:04 | 52.86831 | -40.85482 | 33321 ft | 514 kts | 73° |
| 2026-05-08 22:04 | 52.88631 | -40.74074 | 33323 ft | 513 kts | 73° |
| 2026-05-08 22:05 | 52.90414 | -40.62683 | 33335 ft | 513 kts | 73° |
| 2026-05-08 22:05 | 52.92188 | -40.51278 | 33348 ft | 512 kts | 73° |
| 2026-05-08 22:06 | 52.93955 | -40.39847 | 33345 ft | 511 kts | 73° |
| 2026-05-08 22:06 | 52.95706 | -40.28428 | 33350 ft | 510 kts | 73° |
| 2026-05-08 22:07 | 52.97432 | -40.17101 | 33357 ft | 510 kts | 73° |
| 2026-05-08 22:07 | 52.99159 | -40.05676 | 33361 ft | 510 kts | 73° |
| 2026-05-08 22:08 | 53.00868 | -39.94261 | 33373 ft | 510 kts | 73° |
| 2026-05-08 22:08 | 53.02517 | -39.82774 | 33376 ft | 510 kts | 73° |
| 2026-05-08 22:09 | 53.04140 | -39.71297 | 33381 ft | 510 kts | 73° |
| 2026-05-08 22:09 | 53.05751 | -39.59887 | 33384 ft | 510 kts | 73° |
| 2026-05-08 22:10 | 53.07372 | -39.48365 | 33391 ft | 509 kts | 73° |
| 2026-05-08 22:10 | 53.08967 | -39.36942 | 33399 ft | 509 kts | 73° |
| 2026-05-08 22:11 | 53.10557 | -39.25468 | 33403 ft | 509 kts | 73° |
| 2026-05-08 22:11 | 53.12120 | -39.14101 | 33409 ft | 508 kts | 73° |
| 2026-05-08 22:12 | 53.13689 | -39.02601 | 33418 ft | 508 kts | 73° |
| 2026-05-08 22:12 | 53.15238 | -38.91155 | 33419 ft | 508 kts | 73° |
| 2026-05-08 22:13 | 53.16785 | -38.79641 | 33422 ft | 507 kts | 73° |
| 2026-05-08 22:13 | 53.18311 | -38.68183 | 33423 ft | 507 kts | 73° |
| 2026-05-08 22:14 | 53.19822 | -38.56753 | 33430 ft | 507 kts | 73° |
| 2026-05-08 22:14 | 53.21324 | -38.45299 | 33433 ft | 507 kts | 73° |
| 2026-05-08 22:15 | 53.22818 | -38.33815 | 33441 ft | 506 kts | 73° |
| 2026-05-08 22:15 | 53.24293 | -38.22388 | 33443 ft | 505 kts | 73° |
| 2026-05-08 22:16 | 53.25769 | -38.10854 | 33442 ft | 505 kts | 73° |
| 2026-05-08 22:16 | 53.27214 | -37.99472 | 33441 ft | 504 kts | 73° |
| 2026-05-08 22:17 | 53.28657 | -37.88013 | 33461 ft | 504 kts | 73° |
| 2026-05-08 22:17 | 53.30086 | -37.76571 | 33455 ft | 503 kts | 73° |
| 2026-05-08 22:18 | 53.31504 | -37.65121 | 33469 ft | 502 kts | 73° |
| 2026-05-08 22:18 | 53.32898 | -37.53765 | 33459 ft | 502 kts | 73° |
| 2026-05-08 22:19 | 53.34291 | -37.42323 | 33460 ft | 501 kts | 73° |
| 2026-05-08 22:19 | 53.35674 | -37.30868 | 33470 ft | 501 kts | 73° |
| 2026-05-08 22:20 | 53.37033 | -37.19519 | 33474 ft | 500 kts | 73° |
| 2026-05-08 22:20 | 53.38383 | -37.08135 | 33479 ft | 500 kts | 73° |
| 2026-05-08 22:21 | 53.39730 | -36.96687 | 33488 ft | 499 kts | 73° |
| 2026-05-08 22:21 | 53.41056 | -36.85316 | 33492 ft | 498 kts | 73° |
| 2026-05-08 22:22 | 53.42372 | -36.73926 | 33496 ft | 497 kts | 73° |
| 2026-05-08 22:22 | 53.43666 | -36.62634 | 33499 ft | 496 kts | 73° |
| 2026-05-08 22:23 | 53.44959 | -36.51249 | 33502 ft | 496 kts | 73° |
| 2026-05-08 22:23 | 53.46229 | -36.39966 | 33507 ft | 495 kts | 73° |
| 2026-05-08 22:24 | 53.47494 | -36.28625 | 33510 ft | 494 kts | 73° |
| 2026-05-08 22:24 | 53.48747 | -36.17293 | 33514 ft | 494 kts | 73° |
| 2026-05-08 22:25 | 53.49987 | -36.05964 | 33518 ft | 494 kts | 73° |
| 2026-05-08 22:25 | 53.51221 | -35.94592 | 33522 ft | 493 kts | 73° |
| 2026-05-08 22:26 | 53.52430 | -35.83332 | 33526 ft | 493 kts | 73° |
| 2026-05-08 22:26 | 53.53637 | -35.71997 | 33528 ft | 493 kts | 73° |
| 2026-05-08 22:27 | 53.54830 | -35.60684 | 33532 ft | 491 kts | 73° |
| 2026-05-08 22:27 | 53.56009 | -35.49382 | 33537 ft | 489 kts | 73° |
| 2026-05-08 22:28 | 53.57166 | -35.38214 | 33537 ft | 488 kts | 73° |
| 2026-05-08 22:28 | 53.58327 | -35.26891 | 33541 ft | 488 kts | 73° |
| 2026-05-08 22:29 | 53.59463 | -35.15701 | 33546 ft | 488 kts | 73° |
| 2026-05-08 22:29 | 53.60596 | -35.04434 | 33546 ft | 487 kts | 73° |
| 2026-05-08 22:30 | 53.61713 | -34.93203 | 33550 ft | 487 kts | 73° |
| 2026-05-08 22:30 | 53.62637 | -34.83835 | 33556 ft | 487 kts | 73° |
| 2026-05-08 22:31 | 53.63911 | -34.70786 | 33557 ft | 487 kts | 73° |
| 2026-05-08 22:31 | 53.65001 | -34.59502 | 33560 ft | 486 kts | 73° |
| 2026-05-08 22:32 | 53.66077 | -34.48238 | 33559 ft | 486 kts | 73° |
| 2026-05-08 22:32 | 53.67133 | -34.37079 | 33563 ft | 486 kts | 73° |
| 2026-05-08 22:33 | 53.68186 | -34.25832 | 33568 ft | 486 kts | 73° |
| 2026-05-08 22:33 | 53.69229 | -34.14568 | 33569 ft | 486 kts | 73° |
| 2026-05-08 22:34 | 53.70257 | -34.03348 | 33568 ft | 485 kts | 73° |
| 2026-05-08 22:34 | 53.71112 | -33.93924 | 33571 ft | 485 kts | 73° |
| 2026-05-08 22:35 | 53.72285 | -33.80860 | 33578 ft | 484 kts | 73° |
| 2026-05-08 22:35 | 53.73114 | -33.71519 | 33569 ft | 484 kts | 73° |
| 2026-05-08 22:36 | 53.74099 | -33.60313 | 33575 ft | 483 kts | 73° |
| 2026-05-08 22:36 | 53.75074 | -33.49095 | 33579 ft | 482 kts | 73° |
| 2026-05-08 22:37 | 53.76194 | -33.36049 | 33573 ft | 482 kts | 73° |
| 2026-05-08 22:37 | 53.76986 | -33.26727 | 33578 ft | 481 kts | 74° |
| 2026-05-08 22:38 | 53.77925 | -33.15543 | 33582 ft | 481 kts | 74° |
| 2026-05-08 22:38 | 53.78853 | -33.04371 | 33581 ft | 480 kts | 74° |
| 2026-05-08 22:39 | 53.79771 | -32.93195 | 33583 ft | 480 kts | 74° |
| 2026-05-08 22:39 | 53.80673 | -32.82070 | 33584 ft | 479 kts | 74° |
| 2026-05-08 22:40 | 53.81568 | -32.70898 | 33582 ft | 479 kts | 74° |
| 2026-05-08 22:40 | 53.82453 | -32.59726 | 33585 ft | 479 kts | 74° |
| 2026-05-08 22:41 | 53.83325 | -32.48574 | 33585 ft | 478 kts | 74° |
| 2026-05-08 22:41 | 53.84185 | -32.37444 | 33589 ft | 478 kts | 74° |
| 2026-05-08 22:42 | 53.85041 | -32.26230 | 33586 ft | 478 kts | 74° |
| 2026-05-08 22:42 | 53.85877 | -32.15132 | 33578 ft | 477 kts | 74° |
| 2026-05-08 22:43 | 53.86707 | -32.03980 | 33601 ft | 477 kts | 74° |
| 2026-05-08 22:43 | 53.87526 | -31.92830 | 33584 ft | 477 kts | 74° |
| 2026-05-08 22:44 | 53.88329 | -31.81757 | 33586 ft | 476 kts | 74° |
| 2026-05-08 22:44 | 53.89125 | -31.70626 | 33586 ft | 476 kts | 74° |
| 2026-05-08 22:45 | 53.89911 | -31.59490 | 33583 ft | 476 kts | 74° |
| 2026-05-08 22:45 | 53.90685 | -31.48375 | 33587 ft | 476 kts | 74° |
| 2026-05-08 22:46 | 53.91447 | -31.37280 | 33592 ft | 475 kts | 75° |
| 2026-05-08 22:46 | 53.92200 | -31.26158 | 33580 ft | 475 kts | 75° |
| 2026-05-08 22:47 | 53.92943 | -31.15035 | 33583 ft | 475 kts | 75° |
| 2026-05-08 22:47 | 53.93678 | -31.03878 | 33587 ft | 475 kts | 75° |
| 2026-05-08 22:48 | 53.94399 | -30.92753 | 33590 ft | 474 kts | 75° |
| 2026-05-08 22:48 | 53.95107 | -30.81690 | 33582 ft | 474 kts | 75° |
| 2026-05-08 22:49 | 53.95805 | -30.70600 | 33585 ft | 473 kts | 75° |
| 2026-05-08 22:49 | 53.96835 | -30.53940 | 33583 ft | 473 kts | 75° |
| 2026-05-08 22:50 | 53.97507 | -30.42880 | 33583 ft | 472 kts | 75° |
| 2026-05-08 22:50 | 53.98170 | -30.31777 | 33581 ft | 472 kts | 75° |
| 2026-05-08 22:51 | 53.98821 | -30.20692 | 33586 ft | 472 kts | 75° |
| 2026-05-08 22:51 | 53.99462 | -30.09602 | 33580 ft | 471 kts | 75° |
| 2026-05-08 22:52 | 54.00093 | -29.98512 | 33580 ft | 471 kts | 75° |
| 2026-05-08 22:52 | 54.00601 | -29.87481 | 33579 ft | 473 kts | 77° |
| 2026-05-08 22:53 | 54.01000 | -29.76341 | 33583 ft | 473 kts | 77° |
| 2026-05-08 22:53 | 54.01409 | -29.65173 | 33576 ft | 472 kts | 77° |
| 2026-05-08 22:54 | 54.01828 | -29.54053 | 33581 ft | 471 kts | 77° |
| 2026-05-08 22:54 | 54.02246 | -29.42915 | 33575 ft | 471 kts | 77° |
| 2026-05-08 22:55 | 54.02648 | -29.31906 | 33574 ft | 471 kts | 77° |
| 2026-05-08 22:55 | 54.03043 | -29.20759 | 33577 ft | 470 kts | 77° |
| 2026-05-08 22:56 | 54.03426 | -29.09664 | 33570 ft | 470 kts | 77° |
| 2026-05-08 22:56 | 54.03798 | -28.98578 | 33579 ft | 469 kts | 77° |
| 2026-05-08 22:57 | 54.04160 | -28.87508 | 33570 ft | 469 kts | 77° |
| 2026-05-08 22:57 | 54.04510 | -28.76491 | 33574 ft | 468 kts | 77° |
| 2026-05-08 22:58 | 54.04850 | -28.65448 | 33568 ft | 468 kts | 77° |
| 2026-05-08 22:58 | 54.05181 | -28.54387 | 33569 ft | 467 kts | 77° |
| 2026-05-08 22:59 | 54.05501 | -28.43353 | 33568 ft | 467 kts | 78° |
| 2026-05-08 22:59 | 54.05808 | -28.32414 | 33570 ft | 466 kts | 78° |
| 2026-05-08 23:00 | 54.06108 | -28.21370 | 33565 ft | 466 kts | 78° |
| 2026-05-08 23:00 | 54.06396 | -28.10366 | 33572 ft | 466 kts | 78° |
| 2026-05-08 23:01 | 54.06673 | -27.99424 | 33563 ft | 465 kts | 78° |
| 2026-05-08 23:01 | 54.06942 | -27.88410 | 33558 ft | 465 kts | 78° |
| 2026-05-08 23:02 | 54.07200 | -27.77422 | 33560 ft | 465 kts | 78° |
| 2026-05-08 23:02 | 54.07449 | -27.66428 | 33563 ft | 465 kts | 78° |
| 2026-05-08 23:03 | 54.07686 | -27.55463 | 33563 ft | 465 kts | 78° |
| 2026-05-08 23:03 | 54.07914 | -27.44463 | 33560 ft | 465 kts | 78° |
| 2026-05-08 23:04 | 54.08132 | -27.33460 | 33568 ft | 465 kts | 78° |
| 2026-05-08 23:04 | 54.08341 | -27.22469 | 33564 ft | 465 kts | 78° |
| 2026-05-08 23:05 | 54.08539 | -27.11445 | 33562 ft | 465 kts | 78° |
| 2026-05-08 23:05 | 54.08728 | -27.00424 | 33559 ft | 466 kts | 78° |
| 2026-05-08 23:06 | 54.08905 | -26.89453 | 33554 ft | 466 kts | 78° |
| 2026-05-08 23:06 | 54.09073 | -26.78425 | 33554 ft | 467 kts | 79° |
| 2026-05-08 23:07 | 54.09232 | -26.67363 | 33552 ft | 467 kts | 79° |
| 2026-05-08 23:07 | 54.09380 | -26.56336 | 33553 ft | 468 kts | 79° |
| 2026-05-08 23:08 | 54.09518 | -26.45287 | 33553 ft | 468 kts | 79° |
| 2026-05-08 23:08 | 54.09646 | -26.34209 | 33552 ft | 468 kts | 79° |
| 2026-05-08 23:09 | 54.09764 | -26.23111 | 33543 ft | 469 kts | 79° |
| 2026-05-08 23:09 | 54.09872 | -26.12001 | 33544 ft | 469 kts | 79° |
| 2026-05-08 23:10 | 54.09970 | -26.00861 | 33545 ft | 469 kts | 79° |
| 2026-05-08 23:10 | 54.10057 | -25.89821 | 33535 ft | 469 kts | 79° |
| 2026-05-08 23:11 | 54.10135 | -25.78722 | 33542 ft | 469 kts | 79° |
| 2026-05-08 23:11 | 54.10202 | -25.67591 | 33540 ft | 469 kts | 80° |
| 2026-05-08 23:12 | 54.10259 | -25.56559 | 33538 ft | 470 kts | 80° |
| 2026-05-08 23:12 | 54.10306 | -25.45402 | 33535 ft | 470 kts | 80° |
| 2026-05-08 23:13 | 54.10342 | -25.34273 | 33534 ft | 470 kts | 80° |
| 2026-05-08 23:13 | 54.10369 | -25.23166 | 33534 ft | 470 kts | 80° |
| 2026-05-08 23:14 | 54.10385 | -25.12040 | 33531 ft | 470 kts | 80° |
| 2026-05-08 23:14 | 54.10391 | -25.00905 | 33530 ft | 470 kts | 81° |
| 2026-05-08 23:15 | 54.10386 | -24.89837 | 33530 ft | 470 kts | 81° |
| 2026-05-08 23:15 | 54.10371 | -24.78706 | 33527 ft | 470 kts | 81° |
| 2026-05-08 23:16 | 54.10345 | -24.67574 | 33524 ft | 470 kts | 81° |
| 2026-05-08 23:16 | 54.10310 | -24.56453 | 33525 ft | 470 kts | 81° |
| 2026-05-08 23:17 | 54.10265 | -24.45390 | 33521 ft | 470 kts | 81° |
| 2026-05-08 23:17 | 54.10210 | -24.34283 | 33519 ft | 469 kts | 81° |
| 2026-05-08 23:18 | 54.10144 | -24.23156 | 33521 ft | 469 kts | 81° |
| 2026-05-08 23:18 | 54.10069 | -24.12045 | 33527 ft | 469 kts | 81° |
| 2026-05-08 23:19 | 54.09982 | -24.00932 | 33521 ft | 469 kts | 81° |
| 2026-05-08 23:19 | 54.09887 | -23.89903 | 33512 ft | 468 kts | 82° |
| 2026-05-08 23:20 | 54.09780 | -23.78803 | 33522 ft | 468 kts | 82° |
| 2026-05-08 23:20 | 54.09663 | -23.67747 | 33519 ft | 468 kts | 82° |
| 2026-05-08 23:21 | 54.09537 | -23.56659 | 33515 ft | 468 kts | 82° |
| 2026-05-08 23:21 | 54.09401 | -23.45653 | 33507 ft | 467 kts | 82° |
| 2026-05-08 23:22 | 54.09254 | -23.34580 | 33507 ft | 467 kts | 82° |
| 2026-05-08 23:22 | 54.09097 | -23.23519 | 33506 ft | 467 kts | 82° |
| 2026-05-08 23:23 | 54.08930 | -23.12467 | 33503 ft | 467 kts | 82° |
| 2026-05-08 23:23 | 54.08753 | -23.01439 | 33503 ft | 466 kts | 82° |
| 2026-05-08 23:24 | 54.08567 | -22.90452 | 33503 ft | 466 kts | 83° |
| 2026-05-08 23:24 | 54.08371 | -22.79432 | 33504 ft | 465 kts | 83° |
| 2026-05-08 23:25 | 54.08164 | -22.68421 | 33496 ft | 466 kts | 83° |
| 2026-05-08 23:25 | 54.07949 | -22.57477 | 33498 ft | 466 kts | 83° |
| 2026-05-08 23:26 | 54.07723 | -22.46463 | 33494 ft | 466 kts | 83° |
| 2026-05-08 23:26 | 54.07486 | -22.35441 | 33493 ft | 466 kts | 83° |
| 2026-05-08 23:27 | 54.07238 | -22.24394 | 33490 ft | 466 kts | 84° |
| 2026-05-08 23:27 | 54.06982 | -22.13443 | 33489 ft | 466 kts | 84° |
| 2026-05-08 23:28 | 54.06715 | -22.02427 | 33489 ft | 467 kts | 84° |
| 2026-05-08 23:28 | 54.06436 | -21.91358 | 33495 ft | 467 kts | 84° |
| 2026-05-08 23:29 | 54.06149 | -21.80327 | 33486 ft | 468 kts | 85° |
| 2026-05-08 23:29 | 54.05851 | -21.69305 | 33489 ft | 468 kts | 85° |
| 2026-05-08 23:30 | 54.05541 | -21.58225 | 33485 ft | 469 kts | 85° |
| 2026-05-08 23:30 | 54.05222 | -21.47169 | 33481 ft | 469 kts | 85° |
| 2026-05-08 23:31 | 54.04891 | -21.36052 | 33483 ft | 470 kts | 86° |
| 2026-05-08 23:31 | 54.04549 | -21.24915 | 33474 ft | 471 kts | 86° |
| 2026-05-08 23:32 | 54.04198 | -21.13815 | 33477 ft | 471 kts | 86° |
| 2026-05-08 23:32 | 54.03835 | -21.02673 | 33475 ft | 472 kts | 86° |
| 2026-05-08 23:33 | 54.03465 | -20.91616 | 33476 ft | 472 kts | 87° |
| 2026-05-08 23:33 | 54.03081 | -20.80440 | 33471 ft | 472 kts | 87° |
| 2026-05-08 23:34 | 54.02687 | -20.69295 | 33471 ft | 472 kts | 87° |
| 2026-05-08 23:34 | 54.02282 | -20.58137 | 33465 ft | 472 kts | 88° |
| 2026-05-08 23:35 | 54.01870 | -20.47050 | 33467 ft | 472 kts | 88° |
| 2026-05-08 23:35 | 54.01447 | -20.35933 | 33458 ft | 473 kts | 88° |
| 2026-05-08 23:36 | 54.01011 | -20.24778 | 33457 ft | 472 kts | 88° |
| 2026-05-08 23:36 | 54.00565 | -20.13621 | 33461 ft | 472 kts | 88° |
| 2026-05-08 23:37 | 54.00117 | -20.02540 | 33449 ft | 472 kts | 88° |
| 2026-05-08 23:37 | 54.00165 | -19.91463 | 33466 ft | 468 kts | 83° |
| 2026-05-08 23:38 | 54.00379 | -19.80384 | 33448 ft | 469 kts | 83° |
| 2026-05-08 23:38 | 54.00599 | -19.69331 | 33451 ft | 469 kts | 83° |
| 2026-05-08 23:39 | 54.00801 | -19.58314 | 33454 ft | 469 kts | 83° |
| 2026-05-08 23:39 | 54.00988 | -19.47222 | 33452 ft | 470 kts | 83° |
| 2026-05-08 23:40 | 54.01164 | -19.36125 | 33450 ft | 470 kts | 84° |
| 2026-05-08 23:40 | 54.01331 | -19.24983 | 33448 ft | 471 kts | 84° |
| 2026-05-08 23:41 | 54.01487 | -19.13832 | 33445 ft | 472 kts | 84° |
| 2026-05-08 23:41 | 54.01633 | -19.02743 | 33439 ft | 472 kts | 84° |
| 2026-05-08 23:42 | 54.01769 | -18.91587 | 33440 ft | 473 kts | 84° |
| 2026-05-08 23:42 | 54.01895 | -18.80393 | 33436 ft | 474 kts | 84° |
| 2026-05-08 23:43 | 54.02011 | -18.69169 | 33436 ft | 475 kts | 85° |
| 2026-05-08 23:43 | 54.02117 | -18.57920 | 33436 ft | 476 kts | 85° |
| 2026-05-08 23:44 | 54.02213 | -18.46730 | 33434 ft | 477 kts | 85° |
| 2026-05-08 23:44 | 54.02299 | -18.35425 | 33434 ft | 478 kts | 85° |
| 2026-05-08 23:45 | 54.02374 | -18.24159 | 33430 ft | 479 kts | 85° |
| 2026-05-08 23:45 | 54.02438 | -18.13175 | 33428 ft | 481 kts | 86° |
| 2026-05-08 23:46 | 54.02492 | -18.01792 | 33427 ft | 482 kts | 86° |
| 2026-05-08 23:46 | 54.02535 | -17.90460 | 33426 ft | 484 kts | 86° |
| 2026-05-08 23:47 | 54.02568 | -17.79001 | 33422 ft | 485 kts | 87° |
| 2026-05-08 23:47 | 54.02590 | -17.67529 | 33422 ft | 486 kts | 87° |
| 2026-05-08 23:48 | 54.02601 | -17.55975 | 33421 ft | 487 kts | 87° |
| 2026-05-08 23:48 | 54.02601 | -17.44450 | 33418 ft | 489 kts | 87° |
| 2026-05-08 23:49 | 54.02590 | -17.32903 | 33413 ft | 490 kts | 87° |
| 2026-05-08 23:49 | 54.02567 | -17.21297 | 33412 ft | 491 kts | 88° |
| 2026-05-08 23:50 | 54.02536 | -17.09632 | 33413 ft | 493 kts | 88° |
| 2026-05-08 23:50 | 54.02491 | -16.97950 | 33409 ft | 494 kts | 88° |
| 2026-05-08 23:51 | 54.02435 | -16.86256 | 33408 ft | 497 kts | 88° |
| 2026-05-08 23:51 | 54.02367 | -16.74469 | 33408 ft | 499 kts | 89° |
| 2026-05-08 23:52 | 54.02284 | -16.62618 | 33401 ft | 502 kts | 89° |
| 2026-05-08 23:52 | 54.02193 | -16.50750 | 33400 ft | 503 kts | 89° |
| 2026-05-08 23:53 | 54.02089 | -16.38800 | 33400 ft | 506 kts | 90° |
| 2026-05-08 23:53 | 54.01974 | -16.26841 | 33393 ft | 508 kts | 90° |
| 2026-05-08 23:54 | 54.01846 | -16.14768 | 33386 ft | 510 kts | 91° |
| 2026-05-08 23:55 | 54.01630 | -15.96625 | 33397 ft | 514 kts | 91° |
| 2026-05-08 23:55 | 54.01469 | -15.84486 | 33389 ft | 515 kts | 92° |
| 2026-05-08 23:56 | 54.01295 | -15.72293 | 33387 ft | 515 kts | 92° |
| 2026-05-08 23:56 | 54.01110 | -15.60179 | 33389 ft | 515 kts | 92° |
| 2026-05-08 23:57 | 54.00910 | -15.47909 | 33378 ft | 516 kts | 92° |
| 2026-05-08 23:57 | 54.00700 | -15.35713 | 33381 ft | 516 kts | 93° |
| 2026-05-08 23:58 | 54.00477 | -15.23515 | 33376 ft | 516 kts | 93° |
| 2026-05-08 23:58 | 54.00241 | -15.11343 | 33376 ft | 516 kts | 94° |
| 2026-05-08 23:59 | 53.99994 | -14.99130 | 33372 ft | 517 kts | 94° |
| 2026-05-08 23:59 | 53.99932 | -14.86904 | 33367 ft | 518 kts | 91° |
| 2026-05-09 00:00 | 54.00039 | -14.74623 | 33369 ft | 520 kts | 91° |
| 2026-05-09 00:00 | 54.00106 | -14.62348 | 33370 ft | 520 kts | 92° |
| 2026-05-09 00:01 | 54.00121 | -14.50113 | 33362 ft | 521 kts | 92° |
| 2026-05-09 00:01 | 54.00112 | -14.37714 | 33360 ft | 521 kts | 92° |
| 2026-05-09 00:02 | 54.00090 | -14.25392 | 33361 ft | 522 kts | 93° |
| 2026-05-09 00:02 | 54.00058 | -14.13054 | 33357 ft | 522 kts | 93° |
| 2026-05-09 00:03 | 54.00013 | -14.00704 | 33502 ft | 521 kts | 93° |
| 2026-05-09 00:03 | 53.99964 | -13.94558 | 33907 ft | 517 kts | 95° |
| 2026-05-09 00:03 | 53.99794 | -13.88496 | 34307 ft | 513 kts | 97° |
| 2026-05-09 00:03 | 53.99552 | -13.82443 | 34559 ft | 512 kts | 97° |
| 2026-05-09 00:04 | 53.99293 | -13.76472 | 34778 ft | 512 kts | 97° |
| 2026-05-09 00:04 | 53.99034 | -13.70373 | 35007 ft | 511 kts | 97° |
| 2026-05-09 00:04 | 53.98794 | -13.64419 | 35207 ft | 511 kts | 97° |
| 2026-05-09 00:04 | 53.98563 | -13.58411 | 35327 ft | 513 kts | 97° |
| 2026-05-09 00:05 | 53.98334 | -13.52336 | 35346 ft | 517 kts | 96° |
| 2026-05-09 00:05 | 53.97876 | -13.40063 | 35345 ft | 520 kts | 97° |
| 2026-05-09 00:06 | 53.97409 | -13.27757 | 35340 ft | 519 kts | 97° |
| 2026-05-09 00:06 | 53.96930 | -13.15602 | 35332 ft | 519 kts | 97° |
| 2026-05-09 00:07 | 53.96434 | -13.03366 | 35334 ft | 519 kts | 97° |
| 2026-05-09 00:07 | 53.95925 | -12.91140 | 35329 ft | 520 kts | 97° |
| 2026-05-09 00:08 | 53.95402 | -12.78873 | 35331 ft | 520 kts | 97° |
| 2026-05-09 00:08 | 53.94868 | -12.66637 | 35326 ft | 520 kts | 98° |
| 2026-05-09 00:09 | 53.94321 | -12.54397 | 35325 ft | 521 kts | 98° |
| 2026-05-09 00:09 | 53.93761 | -12.42144 | 35319 ft | 521 kts | 98° |
| 2026-05-09 00:10 | 53.93188 | -12.29871 | 35316 ft | 521 kts | 98° |
| 2026-05-09 00:10 | 53.92602 | -12.17616 | 35315 ft | 521 kts | 98° |
| 2026-05-09 00:11 | 53.92103 | -12.07357 | 35311 ft | 521 kts | 98° |
| 2026-05-09 00:11 | 53.91498 | -11.95182 | 35308 ft | 520 kts | 99° |
| 2026-05-09 00:12 | 53.90879 | -11.82954 | 35305 ft | 520 kts | 99° |
| 2026-05-09 00:12 | 53.90244 | -11.70676 | 35298 ft | 520 kts | 99° |
| 2026-05-09 00:13 | 53.89599 | -11.58458 | 35306 ft | 520 kts | 99° |
| 2026-05-09 00:13 | 53.88946 | -11.46316 | 35293 ft | 520 kts | 99° |
| 2026-05-09 00:14 | 53.88273 | -11.34043 | 35296 ft | 520 kts | 99° |
| 2026-05-09 00:14 | 53.87594 | -11.21869 | 35293 ft | 519 kts | 100° |
| 2026-05-09 00:15 | 53.86901 | -11.09691 | 35291 ft | 519 kts | 100° |
| 2026-05-09 00:15 | 53.86201 | -10.97611 | 35289 ft | 519 kts | 100° |
| 2026-05-09 00:16 | 53.85481 | -10.85393 | 35288 ft | 518 kts | 100° |
| 2026-05-09 00:16 | 53.84757 | -10.73306 | 35284 ft | 518 kts | 101° |
| 2026-05-09 00:17 | 53.84013 | -10.61113 | 35279 ft | 518 kts | 101° |
| 2026-05-09 00:17 | 53.83268 | -10.49099 | 35275 ft | 517 kts | 101° |
| 2026-05-09 00:18 | 53.82503 | -10.36966 | 35278 ft | 517 kts | 101° |
| 2026-05-09 00:18 | 53.81729 | -10.24893 | 35270 ft | 517 kts | 101° |
| 2026-05-09 00:19 | 53.80940 | -10.12783 | 35273 ft | 517 kts | 101° |
| 2026-05-09 00:19 | 53.80144 | -10.00741 | 35264 ft | 516 kts | 101° |
| 2026-05-09 00:20 | 53.79333 | -9.88673 | 35272 ft | 516 kts | 101° |
| 2026-05-09 00:20 | 53.78509 | -9.76591 | 35277 ft | 516 kts | 101° |
| 2026-05-09 00:21 | 53.77675 | -9.64548 | 35268 ft | 516 kts | 101° |
| 2026-05-09 00:21 | 53.76829 | -9.52497 | 35263 ft | 516 kts | 102° |
| 2026-05-09 00:22 | 53.75973 | -9.40486 | 35258 ft | 516 kts | 102° |
| 2026-05-09 00:22 | 53.75101 | -9.28430 | 35252 ft | 516 kts | 102° |
| 2026-05-09 00:23 | 53.74223 | -9.16456 | 35248 ft | 515 kts | 102° |
| 2026-05-09 00:23 | 53.73328 | -9.04425 | 35244 ft | 515 kts | 102° |
| 2026-05-09 00:24 | 53.72422 | -8.92416 | 35236 ft | 515 kts | 102° |
| 2026-05-09 00:24 | 53.71505 | -8.80427 | 35237 ft | 515 kts | 102° |
| 2026-05-09 00:25 | 53.70575 | -8.68429 | 35235 ft | 515 kts | 102° |
| 2026-05-09 00:25 | 53.69636 | -8.56469 | 35231 ft | 515 kts | 102° |
| 2026-05-09 00:26 | 53.68686 | -8.44519 | 35229 ft | 515 kts | 102° |
| 2026-05-09 00:26 | 53.67722 | -8.32556 | 35225 ft | 515 kts | 102° |
| 2026-05-09 00:27 | 53.66745 | -8.20580 | 35225 ft | 515 kts | 102° |
| 2026-05-09 00:27 | 53.65755 | -8.08603 | 35225 ft | 515 kts | 102° |
| 2026-05-09 00:28 | 53.64760 | -7.96720 | 35221 ft | 515 kts | 102° |
| 2026-05-09 00:28 | 53.63743 | -7.84714 | 35218 ft | 515 kts | 102° |
| 2026-05-09 00:29 | 53.62720 | -7.72798 | 35221 ft | 515 kts | 103° |
| 2026-05-09 00:29 | 53.61682 | -7.60830 | 35220 ft | 514 kts | 103° |
| 2026-05-09 00:30 | 53.60636 | -7.48926 | 35214 ft | 514 kts | 103° |
| 2026-05-09 00:30 | 53.59587 | -7.37094 | 35212 ft | 514 kts | 103° |
| 2026-05-09 00:31 | 53.58825 | -7.25010 | 35209 ft | 517 kts | 98° |
| 2026-05-09 00:31 | 53.58262 | -7.12976 | 35204 ft | 516 kts | 98° |
| 2026-05-09 00:32 | 53.57637 | -7.00930 | 35208 ft | 516 kts | 99° |
| 2026-05-09 00:32 | 53.56953 | -6.88930 | 35204 ft | 516 kts | 99° |
| 2026-05-09 00:33 | 53.56245 | -6.76973 | 35196 ft | 516 kts | 99° |
| 2026-05-09 00:33 | 53.55525 | -6.64991 | 35196 ft | 516 kts | 100° |
| 2026-05-09 00:34 | 53.54797 | -6.53032 | 35188 ft | 515 kts | 100° |
| 2026-05-09 00:34 | 53.54056 | -6.41062 | 35189 ft | 515 kts | 100° |
| 2026-05-09 00:35 | 53.53300 | -6.29048 | 35189 ft | 515 kts | 100° |
| 2026-05-09 00:35 | 53.52536 | -6.17106 | 35181 ft | 515 kts | 100° |
| 2026-05-09 00:36 | 53.51759 | -6.05149 | 35179 ft | 514 kts | 100° |
| 2026-05-09 00:36 | 53.50970 | -5.93201 | 35193 ft | 514 kts | 100° |
| 2026-05-09 00:37 | 53.50170 | -5.81273 | 35181 ft | 514 kts | 100° |
| 2026-05-09 00:37 | 53.49359 | -5.69355 | 35192 ft | 513 kts | 100° |
| 2026-05-09 00:38 | 53.48538 | -5.57457 | 35188 ft | 513 kts | 100° |
| 2026-05-09 00:38 | 53.47730 | -5.45533 | 35189 ft | 514 kts | 98° |
| 2026-05-09 00:39 | 53.47376 | -5.33547 | 35183 ft | 516 kts | 95° |
| 2026-05-09 00:39 | 53.47161 | -5.21510 | 35186 ft | 516 kts | 95° |
| 2026-05-09 00:40 | 53.46865 | -5.09492 | 35172 ft | 515 kts | 96° |
| 2026-05-09 00:40 | 53.46489 | -4.97466 | 35179 ft | 515 kts | 96° |
| 2026-05-09 00:41 | 53.45892 | -4.79465 | 35168 ft | 515 kts | 96° |
| 2026-05-09 00:41 | 53.45488 | -4.67522 | 35166 ft | 515 kts | 97° |
| 2026-05-09 00:42 | 53.45070 | -4.55475 | 35166 ft | 515 kts | 96° |
| 2026-05-09 00:42 | 53.44638 | -4.43513 | 35159 ft | 515 kts | 97° |
| 2026-05-09 00:43 | 53.44194 | -4.31538 | 35154 ft | 515 kts | 97° |
| 2026-05-09 00:43 | 53.43749 | -4.19620 | 35158 ft | 514 kts | 97° |
| 2026-05-09 00:44 | 53.43281 | -4.07649 | 35158 ft | 514 kts | 97° |
| 2026-05-09 00:44 | 53.42799 | -3.95602 | 35153 ft | 514 kts | 97° |
| 2026-05-09 00:45 | 53.42319 | -3.83663 | 35153 ft | 514 kts | 97° |
| 2026-05-09 00:45 | 53.41815 | -3.71716 | 35152 ft | 515 kts | 97° |
| 2026-05-09 00:46 | 53.41299 | -3.59735 | 35146 ft | 515 kts | 97° |
| 2026-05-09 00:46 | 53.40781 | -3.47755 | 35143 ft | 515 kts | 97° |
| 2026-05-09 00:47 | 53.40242 | -3.35841 | 35137 ft | 515 kts | 97° |
| 2026-05-09 00:47 | 53.39687 | -3.23814 | 35132 ft | 515 kts | 97° |
| 2026-05-09 00:48 | 53.39129 | -3.11906 | 35136 ft | 516 kts | 97° |
| 2026-05-09 00:48 | 53.38654 | -2.99921 | 35128 ft | 516 kts | 96° |
| 2026-05-09 00:49 | 53.38229 | -2.87923 | 35131 ft | 517 kts | 96° |
| 2026-05-09 00:49 | 53.37778 | -2.75914 | 35129 ft | 517 kts | 96° |
| 2026-05-09 00:50 | 53.37300 | -2.63911 | 35128 ft | 517 kts | 96° |
| 2026-05-09 00:50 | 53.36805 | -2.51874 | 35148 ft | 517 kts | 96° |
| 2026-05-09 00:51 | 53.36299 | -2.39876 | 35148 ft | 518 kts | 96° |
| 2026-05-09 00:51 | 53.35770 | -2.27872 | 35286 ft | 515 kts | 98° |
| 2026-05-09 00:52 | 53.35274 | -2.21934 | 35600 ft | 511 kts | 102° |
| 2026-05-09 00:52 | 53.34703 | -2.16103 | 35894 ft | 509 kts | 102° |
| 2026-05-09 00:52 | 53.34105 | -2.10242 | 36141 ft | 507 kts | 102° |
| 2026-05-09 00:52 | 53.33502 | -2.04459 | 36370 ft | 506 kts | 102° |
| 2026-05-09 00:53 | 53.32893 | -1.98664 | 36591 ft | 505 kts | 102° |
| 2026-05-09 00:53 | 53.32283 | -1.92862 | 36799 ft | 504 kts | 102° |
| 2026-05-09 00:53 | 53.31678 | -1.87109 | 36992 ft | 503 kts | 102° |
| 2026-05-09 00:53 | 53.31071 | -1.81345 | 37128 ft | 504 kts | 102° |
| 2026-05-09 00:54 | 53.29841 | -1.69747 | 37131 ft | 510 kts | 102° |
| 2026-05-09 00:54 | 53.28601 | -1.58076 | 37133 ft | 508 kts | 102° |
| 2026-05-09 00:55 | 53.27351 | -1.46457 | 37135 ft | 507 kts | 102° |
| 2026-05-09 00:55 | 53.26301 | -1.36864 | 37133 ft | 506 kts | 102° |
| 2026-05-09 00:56 | 53.25028 | -1.25301 | 37133 ft | 506 kts | 102° |
| 2026-05-09 00:56 | 53.23750 | -1.13775 | 37133 ft | 505 kts | 102° |
| 2026-05-09 00:57 | 53.22458 | -1.02224 | 37139 ft | 505 kts | 102° |
| 2026-05-09 00:57 | 53.21157 | -0.90700 | 37147 ft | 505 kts | 102° |
| 2026-05-09 00:58 | 53.19851 | -0.79195 | 37153 ft | 506 kts | 103° |
| 2026-05-09 00:58 | 53.18525 | -0.67670 | 37154 ft | 507 kts | 103° |
| 2026-05-09 00:59 | 53.17182 | -0.56131 | 37157 ft | 507 kts | 103° |
| 2026-05-09 00:59 | 53.15828 | -0.44579 | 37156 ft | 508 kts | 103° |
| 2026-05-09 01:00 | 53.14463 | -0.33021 | 37155 ft | 507 kts | 103° |
| 2026-05-09 01:00 | 53.13091 | -0.21512 | 37155 ft | 507 kts | 103° |
| 2026-05-09 01:01 | 53.11710 | -0.10021 | 37169 ft | 507 kts | 103° |
| 2026-05-09 01:01 | 53.10314 | 0.01493 | 37153 ft | 507 kts | 103° |
| 2026-05-09 01:02 | 53.08906 | 0.13007 | 37168 ft | 507 kts | 103° |
| 2026-05-09 01:02 | 53.07493 | 0.24461 | 37154 ft | 507 kts | 103° |
| 2026-05-09 01:03 | 53.06065 | 0.35940 | 37159 ft | 507 kts | 103° |
| 2026-05-09 01:03 | 53.04624 | 0.47430 | 37163 ft | 506 kts | 103° |
| 2026-05-09 01:04 | 53.03178 | 0.58865 | 37164 ft | 507 kts | 103° |
| 2026-05-09 01:04 | 53.01718 | 0.70315 | 37171 ft | 507 kts | 103° |
| 2026-05-09 01:05 | 53.00249 | 0.81746 | 37175 ft | 507 kts | 103° |
| 2026-05-09 01:06 | 52.98019 | 0.98911 | 37183 ft | 507 kts | 103° |
| 2026-05-09 01:06 | 52.96614 | 1.10310 | 37175 ft | 508 kts | 102° |
| 2026-05-09 01:07 | 52.95326 | 1.21804 | 37173 ft | 508 kts | 101° |
| 2026-05-09 01:07 | 52.94013 | 1.33340 | 37168 ft | 508 kts | 102° |
| 2026-05-09 01:08 | 52.92670 | 1.44815 | 37171 ft | 508 kts | 102° |
| 2026-05-09 01:08 | 52.91305 | 1.56298 | 37173 ft | 508 kts | 102° |
| 2026-05-09 01:09 | 52.89930 | 1.67763 | 37172 ft | 508 kts | 102° |
| 2026-05-09 01:09 | 52.88539 | 1.79263 | 37170 ft | 508 kts | 102° |
| 2026-05-09 01:10 | 52.87142 | 1.90726 | 37176 ft | 508 kts | 102° |
| 2026-05-09 01:10 | 52.85733 | 2.02193 | 37169 ft | 508 kts | 102° |
| 2026-05-09 01:11 | 52.84314 | 2.13632 | 37176 ft | 508 kts | 102° |
| 2026-05-09 01:11 | 52.82884 | 2.25077 | 37169 ft | 508 kts | 102° |
| 2026-05-09 01:12 | 52.81447 | 2.36478 | 37172 ft | 508 kts | 102° |
| 2026-05-09 01:12 | 52.79989 | 2.47949 | 37167 ft | 508 kts | 102° |
| 2026-05-09 01:13 | 52.78553 | 2.59274 | 37168 ft | 508 kts | 102° |
| 2026-05-09 01:13 | 52.77071 | 2.70688 | 37167 ft | 508 kts | 102° |
| 2026-05-09 01:14 | 52.75580 | 2.82082 | 37164 ft | 508 kts | 102° |
| 2026-05-09 01:14 | 52.74088 | 2.93486 | 37165 ft | 508 kts | 102° |
| 2026-05-09 01:15 | 52.72600 | 3.04813 | 37168 ft | 508 kts | 102° |
| 2026-05-09 01:15 | 52.71196 | 3.16204 | 37159 ft | 507 kts | 101° |
| 2026-05-09 01:16 | 52.69799 | 3.27616 | 37162 ft | 507 kts | 101° |
| 2026-05-09 01:16 | 52.68378 | 3.39010 | 37158 ft | 507 kts | 101° |
| 2026-05-09 01:17 | 52.66216 | 3.56052 | 37160 ft | 507 kts | 101° |
| 2026-05-09 01:17 | 52.64760 | 3.67408 | 37159 ft | 507 kts | 101° |
| 2026-05-09 01:18 | 52.63295 | 3.78744 | 37163 ft | 506 kts | 102° |
| 2026-05-09 01:18 | 52.61822 | 3.90055 | 37163 ft | 506 kts | 102° |
| 2026-05-09 01:19 | 52.60346 | 4.01299 | 37156 ft | 506 kts | 102° |
| 2026-05-09 01:19 | 52.58845 | 4.12648 | 37164 ft | 506 kts | 102° |
| 2026-05-09 01:20 | 52.57328 | 4.24022 | 37155 ft | 507 kts | 102° |
| 2026-05-09 01:20 | 52.55834 | 4.35140 | 37155 ft | 507 kts | 102° |
| 2026-05-09 01:21 | 52.54365 | 4.45981 | 37155 ft | 507 kts | 102° |
| 2026-05-09 01:21 | 52.52823 | 4.57284 | 37156 ft | 507 kts | 102° |
| 2026-05-09 01:22 | 52.51262 | 4.68643 | 37152 ft | 507 kts | 102° |
| 2026-05-09 01:22 | 52.49705 | 4.79878 | 37156 ft | 507 kts | 102° |
| 2026-05-09 01:23 | 52.48123 | 4.91209 | 37159 ft | 507 kts | 102° |
| 2026-05-09 01:23 | 52.46547 | 5.02418 | 37159 ft | 508 kts | 102° |
| 2026-05-09 01:24 | 52.44953 | 5.13667 | 37160 ft | 508 kts | 102° |
| 2026-05-09 01:24 | 52.43340 | 5.24969 | 37161 ft | 508 kts | 102° |
| 2026-05-09 01:25 | 52.41719 | 5.36242 | 37157 ft | 508 kts | 102° |
| 2026-05-09 01:25 | 52.40092 | 5.47474 | 37157 ft | 508 kts | 102° |
| 2026-05-09 01:26 | 52.38445 | 5.58760 | 37161 ft | 508 kts | 102° |
| 2026-05-09 01:26 | 52.36792 | 5.70002 | 37154 ft | 508 kts | 102° |
| 2026-05-09 01:27 | 52.35134 | 5.81205 | 37161 ft | 508 kts | 102° |
| 2026-05-09 01:27 | 52.33460 | 5.92431 | 37160 ft | 508 kts | 102° |
| 2026-05-09 01:28 | 52.31778 | 6.03633 | 37162 ft | 507 kts | 102° |
| 2026-05-09 01:28 | 52.30101 | 6.14728 | 37162 ft | 507 kts | 102° |
| 2026-05-09 01:29 | 52.28394 | 6.25939 | 37163 ft | 507 kts | 102° |
| 2026-05-09 01:29 | 52.26682 | 6.37104 | 37165 ft | 507 kts | 102° |
| 2026-05-09 01:30 | 52.24959 | 6.48259 | 37163 ft | 507 kts | 102° |
| 2026-05-09 01:30 | 52.23229 | 6.59387 | 37160 ft | 507 kts | 102° |
| 2026-05-09 01:31 | 52.21484 | 6.70538 | 37169 ft | 506 kts | 102° |
| 2026-05-09 01:31 | 52.19733 | 6.81651 | 37162 ft | 506 kts | 102° |
| 2026-05-09 01:32 | 52.17969 | 6.92770 | 37164 ft | 506 kts | 102° |
| 2026-05-09 01:32 | 52.16212 | 7.03776 | 37173 ft | 506 kts | 103° |
| 2026-05-09 01:33 | 52.14432 | 7.14863 | 37168 ft | 506 kts | 102° |
| 2026-05-09 01:33 | 52.12687 | 7.25920 | 37171 ft | 505 kts | 102° |
| 2026-05-09 01:34 | 52.10940 | 7.36989 | 37169 ft | 505 kts | 102° |
| 2026-05-09 01:34 | 52.09177 | 7.48057 | 37159 ft | 505 kts | 103° |
| 2026-05-09 01:35 | 52.07406 | 7.59071 | 37148 ft | 504 kts | 103° |
| 2026-05-09 01:35 | 52.05624 | 7.70076 | 37165 ft | 504 kts | 103° |
| 2026-05-09 01:36 | 52.03828 | 7.81092 | 37149 ft | 504 kts | 103° |
| 2026-05-09 01:36 | 52.02025 | 7.92084 | 37170 ft | 503 kts | 103° |
| 2026-05-09 01:37 | 52.00222 | 8.03010 | 37162 ft | 503 kts | 103° |
| 2026-05-09 01:37 | 51.98394 | 8.14009 | 37163 ft | 503 kts | 103° |
| 2026-05-09 01:38 | 51.96573 | 8.24899 | 37176 ft | 503 kts | 103° |
| 2026-05-09 01:38 | 51.94725 | 8.35884 | 37169 ft | 502 kts | 104° |
| 2026-05-09 01:39 | 51.92887 | 8.46736 | 37172 ft | 502 kts | 104° |
| 2026-05-09 01:39 | 51.91028 | 8.57647 | 37171 ft | 502 kts | 104° |
| 2026-05-09 01:40 | 51.89166 | 8.68505 | 37171 ft | 502 kts | 104° |
| 2026-05-09 01:40 | 51.87284 | 8.79414 | 37173 ft | 502 kts | 104° |
| 2026-05-09 01:41 | 51.85391 | 8.90321 | 37173 ft | 502 kts | 104° |
| 2026-05-09 01:41 | 51.83494 | 9.01184 | 37176 ft | 503 kts | 104° |
| 2026-05-09 01:42 | 51.81584 | 9.12052 | 37177 ft | 503 kts | 105° |
| 2026-05-09 01:42 | 51.79674 | 9.22854 | 37179 ft | 503 kts | 105° |
| 2026-05-09 01:43 | 51.77741 | 9.33724 | 37180 ft | 503 kts | 105° |
| 2026-05-09 01:43 | 51.75805 | 9.44549 | 37179 ft | 504 kts | 105° |
| 2026-05-09 01:44 | 51.73847 | 9.55426 | 37183 ft | 504 kts | 105° |
| 2026-05-09 01:44 | 51.71886 | 9.66255 | 37182 ft | 505 kts | 105° |
| 2026-05-09 01:45 | 51.69903 | 9.77144 | 37181 ft | 505 kts | 105° |
| 2026-05-09 01:45 | 51.67912 | 9.88013 | 37179 ft | 505 kts | 106° |
| 2026-05-09 01:46 | 51.65910 | 9.98870 | 37182 ft | 505 kts | 106° |
| 2026-05-09 01:46 | 51.63900 | 10.09713 | 37182 ft | 506 kts | 106° |
| 2026-05-09 01:47 | 51.61878 | 10.20557 | 37185 ft | 506 kts | 106° |
| 2026-05-09 01:47 | 51.60190 | 10.29555 | 37184 ft | 506 kts | 107° |
| 2026-05-09 01:48 | 51.58146 | 10.40405 | 37184 ft | 506 kts | 107° |
| 2026-05-09 01:48 | 51.56096 | 10.51219 | 37183 ft | 507 kts | 107° |
| 2026-05-09 01:49 | 51.54032 | 10.62041 | 37186 ft | 507 kts | 107° |
| 2026-05-09 01:49 | 51.51968 | 10.72857 | 37182 ft | 507 kts | 107° |
| 2026-05-09 01:50 | 51.49890 | 10.83675 | 37186 ft | 507 kts | 107° |
| 2026-05-09 01:50 | 51.47801 | 10.94484 | 37182 ft | 507 kts | 107° |
| 2026-05-09 01:51 | 51.45701 | 11.05299 | 37185 ft | 507 kts | 107° |
| 2026-05-09 01:51 | 51.43607 | 11.16021 | 37181 ft | 507 kts | 108° |
| 2026-05-09 01:52 | 51.41490 | 11.26799 | 37182 ft | 508 kts | 108° |
| 2026-05-09 01:52 | 51.39356 | 11.37603 | 37180 ft | 508 kts | 108° |
| 2026-05-09 01:53 | 51.37218 | 11.48372 | 37177 ft | 508 kts | 108° |
| 2026-05-09 01:53 | 51.35069 | 11.59132 | 37179 ft | 508 kts | 108° |
| 2026-05-09 01:54 | 51.32927 | 11.69799 | 37175 ft | 508 kts | 108° |
| 2026-05-09 01:54 | 51.30756 | 11.80549 | 37177 ft | 508 kts | 108° |
| 2026-05-09 01:55 | 51.28574 | 11.91297 | 37179 ft | 508 kts | 108° |
| 2026-05-09 01:55 | 51.26373 | 12.02079 | 37180 ft | 508 kts | 109° |
| 2026-05-09 01:56 | 51.24180 | 12.12768 | 37178 ft | 508 kts | 109° |
| 2026-05-09 01:56 | 51.21978 | 12.23438 | 37173 ft | 508 kts | 109° |
| 2026-05-09 01:57 | 51.19755 | 12.34152 | 37173 ft | 508 kts | 109° |
| 2026-05-09 01:57 | 51.17523 | 12.44852 | 37176 ft | 508 kts | 109° |
| 2026-05-09 01:58 | 51.15283 | 12.55535 | 37177 ft | 508 kts | 109° |
| 2026-05-09 01:58 | 51.13031 | 12.66221 | 37177 ft | 508 kts | 109° |
| 2026-05-09 01:59 | 51.10771 | 12.76883 | 37178 ft | 508 kts | 109° |
| 2026-05-09 01:59 | 51.08507 | 12.87512 | 37172 ft | 508 kts | 109° |
| 2026-05-09 02:00 | 51.06231 | 12.98139 | 37167 ft | 508 kts | 109° |
| 2026-05-09 02:00 | 51.03939 | 13.08787 | 37161 ft | 508 kts | 110° |
| 2026-05-09 02:01 | 51.01651 | 13.19363 | 37164 ft | 508 kts | 110° |
| 2026-05-09 02:01 | 50.99344 | 13.29968 | 37166 ft | 508 kts | 110° |
| 2026-05-09 02:02 | 50.97027 | 13.40567 | 37172 ft | 508 kts | 110° |
| 2026-05-09 02:02 | 50.94715 | 13.51086 | 37171 ft | 508 kts | 110° |
| 2026-05-09 02:03 | 50.92372 | 13.61697 | 37173 ft | 508 kts | 110° |
| 2026-05-09 02:03 | 50.90055 | 13.72132 | 37175 ft | 508 kts | 110° |
| 2026-05-09 02:04 | 50.87698 | 13.82696 | 37179 ft | 508 kts | 110° |
| 2026-05-09 02:04 | 50.85324 | 13.93222 | 37167 ft | 508 kts | 112° |
| 2026-05-09 02:05 | 50.81879 | 14.02860 | 37172 ft | 504 kts | 131° |
| 2026-05-09 02:05 | 50.77089 | 14.10951 | 37173 ft | 503 kts | 136° |
| 2026-05-09 02:06 | 50.72133 | 14.18718 | 37147 ft | 503 kts | 137° |
| 2026-05-09 02:07 | 50.64672 | 14.30384 | 37147 ft | 503 kts | 137° |
| 2026-05-09 02:07 | 50.59707 | 14.38187 | 37158 ft | 503 kts | 137° |
| 2026-05-09 02:08 | 50.54763 | 14.45947 | 37159 ft | 504 kts | 137° |
| 2026-05-09 02:08 | 50.49790 | 14.53724 | 37156 ft | 504 kts | 137° |
| 2026-05-09 02:09 | 50.44809 | 14.61487 | 37155 ft | 504 kts | 137° |
| 2026-05-09 02:09 | 50.39835 | 14.69216 | 37157 ft | 504 kts | 137° |
| 2026-05-09 02:10 | 50.34863 | 14.76918 | 37153 ft | 504 kts | 137° |
| 2026-05-09 02:10 | 50.29844 | 14.84667 | 37163 ft | 505 kts | 137° |
| 2026-05-09 02:11 | 50.24842 | 14.92366 | 37157 ft | 505 kts | 137° |
| 2026-05-09 02:11 | 50.19829 | 15.00057 | 37155 ft | 505 kts | 137° |
| 2026-05-09 02:12 | 50.14824 | 15.07713 | 37147 ft | 505 kts | 137° |
| 2026-05-09 02:12 | 50.09804 | 15.15368 | 37140 ft | 505 kts | 137° |
| 2026-05-09 02:13 | 50.04816 | 15.22951 | 37143 ft | 504 kts | 138° |
| 2026-05-09 02:13 | 49.99800 | 15.30552 | 37146 ft | 504 kts | 138° |
| 2026-05-09 02:14 | 49.94757 | 15.38171 | 37151 ft | 504 kts | 138° |
| 2026-05-09 02:14 | 49.89727 | 15.45748 | 37154 ft | 504 kts | 138° |
| 2026-05-09 02:15 | 49.84691 | 15.53310 | 37153 ft | 504 kts | 138° |
| 2026-05-09 02:15 | 49.79663 | 15.60837 | 37151 ft | 504 kts | 138° |
| 2026-05-09 02:16 | 49.74623 | 15.68359 | 37153 ft | 504 kts | 138° |
| 2026-05-09 02:16 | 49.69567 | 15.75882 | 37151 ft | 504 kts | 139° |
| 2026-05-09 02:17 | 49.64525 | 15.83360 | 37147 ft | 504 kts | 139° |
| 2026-05-09 02:17 | 49.59464 | 15.90846 | 37146 ft | 503 kts | 139° |
| 2026-05-09 02:18 | 49.54411 | 15.98297 | 37147 ft | 503 kts | 139° |
| 2026-05-09 02:18 | 49.49368 | 16.05711 | 37145 ft | 503 kts | 139° |
| 2026-05-09 02:19 | 49.44281 | 16.13166 | 37148 ft | 503 kts | 139° |
| 2026-05-09 02:19 | 49.39238 | 16.20535 | 37148 ft | 503 kts | 139° |
| 2026-05-09 02:20 | 49.34172 | 16.27916 | 37149 ft | 502 kts | 139° |
| 2026-05-09 02:20 | 49.29113 | 16.35264 | 37155 ft | 502 kts | 139° |
| 2026-05-09 02:21 | 49.24032 | 16.42623 | 37151 ft | 501 kts | 139° |
| 2026-05-09 02:21 | 49.18965 | 16.49939 | 37148 ft | 501 kts | 140° |
| 2026-05-09 02:22 | 49.13901 | 16.57229 | 37167 ft | 501 kts | 140° |
| 2026-05-09 02:22 | 49.08823 | 16.64518 | 37144 ft | 500 kts | 140° |
| 2026-05-09 02:23 | 49.03739 | 16.71794 | 37155 ft | 500 kts | 140° |
| 2026-05-09 02:23 | 48.98669 | 16.79028 | 37149 ft | 500 kts | 140° |
| 2026-05-09 02:24 | 48.93588 | 16.86256 | 37143 ft | 500 kts | 140° |
| 2026-05-09 02:24 | 48.88506 | 16.93466 | 37134 ft | 499 kts | 140° |
| 2026-05-09 02:25 | 48.83457 | 17.00610 | 37124 ft | 499 kts | 140° |
| 2026-05-09 02:25 | 48.78569 | 17.08171 | 37122 ft | 503 kts | 130° |
| 2026-05-09 02:26 | 48.74912 | 17.17162 | 37117 ft | 506 kts | 121° |
| 2026-05-09 02:26 | 48.71571 | 17.26573 | 37119 ft | 506 kts | 121° |
| 2026-05-09 02:27 | 48.68243 | 17.36030 | 37110 ft | 506 kts | 121° |
| 2026-05-09 02:27 | 48.64923 | 17.45341 | 37108 ft | 506 kts | 121° |
| 2026-05-09 02:28 | 48.61565 | 17.54667 | 37102 ft | 505 kts | 121° |
| 2026-05-09 02:28 | 48.57983 | 17.63744 | 37100 ft | 503 kts | 126° |
| 2026-05-09 02:29 | 48.54154 | 17.72605 | 37100 ft | 502 kts | 126° |
| 2026-05-09 02:29 | 48.50361 | 17.81457 | 37101 ft | 502 kts | 126° |
| 2026-05-09 02:30 | 48.46621 | 17.90319 | 37100 ft | 502 kts | 126° |
| 2026-05-09 02:30 | 48.42871 | 17.99226 | 37098 ft | 502 kts | 126° |
| 2026-05-09 02:31 | 48.39133 | 18.08078 | 37097 ft | 501 kts | 126° |
| 2026-05-09 02:31 | 48.35381 | 18.16925 | 37094 ft | 501 kts | 126° |
| 2026-05-09 02:32 | 48.31632 | 18.25734 | 37093 ft | 501 kts | 126° |
| 2026-05-09 02:32 | 48.27868 | 18.34550 | 37094 ft | 501 kts | 126° |
| 2026-05-09 02:33 | 48.24126 | 18.43285 | 37090 ft | 501 kts | 126° |
| 2026-05-09 02:33 | 48.20346 | 18.52071 | 37088 ft | 500 kts | 126° |
| 2026-05-09 02:34 | 48.16005 | 18.60186 | 37087 ft | 496 kts | 135° |
| 2026-05-09 02:34 | 48.11403 | 18.67906 | 37087 ft | 495 kts | 135° |
| 2026-05-09 02:35 | 48.06790 | 18.75529 | 37088 ft | 495 kts | 135° |
| 2026-05-09 02:35 | 48.02167 | 18.83171 | 37086 ft | 495 kts | 135° |
| 2026-05-09 02:36 | 47.97566 | 18.90779 | 37082 ft | 495 kts | 135° |
| 2026-05-09 02:36 | 47.92949 | 18.98400 | 37086 ft | 495 kts | 135° |
| 2026-05-09 02:37 | 47.88363 | 19.05945 | 37085 ft | 495 kts | 135° |
| 2026-05-09 02:37 | 47.83729 | 19.13545 | 37080 ft | 494 kts | 135° |
| 2026-05-09 02:38 | 47.79105 | 19.21110 | 37080 ft | 494 kts | 135° |
| 2026-05-09 02:38 | 47.75229 | 19.27434 | 37075 ft | 494 kts | 135° |
| 2026-05-09 02:39 | 47.70622 | 19.34931 | 37081 ft | 494 kts | 135° |
| 2026-05-09 02:39 | 47.65991 | 19.42445 | 37074 ft | 493 kts | 136° |
| 2026-05-09 02:40 | 47.61321 | 19.50000 | 37076 ft | 493 kts | 136° |
| 2026-05-09 02:40 | 47.56717 | 19.57429 | 37074 ft | 493 kts | 136° |
| 2026-05-09 02:41 | 47.52041 | 19.64953 | 37067 ft | 493 kts | 136° |
| 2026-05-09 02:41 | 47.47440 | 19.72334 | 37055 ft | 493 kts | 136° |
| 2026-05-09 02:42 | 47.42786 | 19.79781 | 37068 ft | 492 kts | 136° |
| 2026-05-09 02:42 | 47.38515 | 19.87715 | 37067 ft | 496 kts | 126° |
| 2026-05-09 02:43 | 47.34856 | 19.96352 | 37054 ft | 497 kts | 124° |
| 2026-05-09 02:43 | 47.31272 | 20.05073 | 37050 ft | 497 kts | 124° |
| 2026-05-09 02:44 | 47.27683 | 20.13768 | 37047 ft | 496 kts | 124° |
| 2026-05-09 02:44 | 47.24077 | 20.22429 | 37048 ft | 496 kts | 124° |
| 2026-05-09 02:45 | 47.20469 | 20.31050 | 37046 ft | 496 kts | 124° |
| 2026-05-09 02:45 | 47.16841 | 20.39688 | 37048 ft | 495 kts | 124° |
| 2026-05-09 02:46 | 47.13219 | 20.48288 | 37046 ft | 495 kts | 125° |
| 2026-05-09 02:46 | 47.09589 | 20.56882 | 37045 ft | 495 kts | 125° |
| 2026-05-09 02:47 | 47.05947 | 20.65474 | 37045 ft | 495 kts | 125° |
| 2026-05-09 02:47 | 47.02311 | 20.74028 | 37045 ft | 495 kts | 125° |
| 2026-05-09 02:48 | 46.98671 | 20.82564 | 37041 ft | 495 kts | 125° |
| 2026-05-09 02:48 | 46.95009 | 20.91124 | 37049 ft | 495 kts | 125° |
| 2026-05-09 02:49 | 46.91354 | 20.99642 | 37043 ft | 495 kts | 125° |
| 2026-05-09 02:49 | 46.87689 | 21.08159 | 37040 ft | 494 kts | 125° |
| 2026-05-09 02:50 | 46.84022 | 21.16653 | 37038 ft | 494 kts | 125° |
| 2026-05-09 02:50 | 46.80342 | 21.25153 | 37037 ft | 494 kts | 125° |
| 2026-05-09 02:51 | 46.76670 | 21.33607 | 37038 ft | 494 kts | 126° |
| 2026-05-09 02:51 | 46.72827 | 21.41857 | 37036 ft | 492 kts | 129° |
| 2026-05-09 02:52 | 46.68827 | 21.49966 | 37037 ft | 494 kts | 124° |
| 2026-05-09 02:52 | 46.65410 | 21.58670 | 37033 ft | 496 kts | 122° |
| 2026-05-09 02:53 | 46.62141 | 21.67511 | 37033 ft | 496 kts | 121° |
| 2026-05-09 02:53 | 46.58892 | 21.76364 | 37036 ft | 496 kts | 121° |
| 2026-05-09 02:54 | 46.55629 | 21.85189 | 37036 ft | 496 kts | 121° |
| 2026-05-09 02:54 | 46.52345 | 21.94009 | 37033 ft | 496 kts | 121° |
| 2026-05-09 02:55 | 46.49057 | 22.02805 | 37034 ft | 496 kts | 121° |
| 2026-05-09 02:55 | 46.45759 | 22.11599 | 37033 ft | 496 kts | 121° |
| 2026-05-09 02:56 | 46.42456 | 22.20381 | 37033 ft | 496 kts | 121° |
| 2026-05-09 02:56 | 46.39145 | 22.29155 | 37030 ft | 495 kts | 122° |
| 2026-05-09 02:57 | 46.35861 | 22.37830 | 37051 ft | 495 kts | 122° |
| 2026-05-09 02:57 | 46.32551 | 22.46546 | 37031 ft | 494 kts | 122° |
| 2026-05-09 02:58 | 46.29236 | 22.55246 | 37049 ft | 494 kts | 122° |
| 2026-05-09 02:58 | 46.25917 | 22.63930 | 37047 ft | 493 kts | 122° |
| 2026-05-09 02:59 | 46.22583 | 22.72623 | 37049 ft | 493 kts | 122° |
| 2026-05-09 02:59 | 46.19259 | 22.81264 | 37049 ft | 493 kts | 122° |
| 2026-05-09 03:00 | 46.15931 | 22.89887 | 37043 ft | 493 kts | 122° |
| 2026-05-09 03:00 | 46.12590 | 22.98520 | 37046 ft | 493 kts | 122° |
| 2026-05-09 03:01 | 46.09244 | 23.07135 | 37041 ft | 493 kts | 122° |
| 2026-05-09 03:01 | 46.05888 | 23.15749 | 37047 ft | 493 kts | 122° |
| 2026-05-09 03:02 | 46.02519 | 23.24370 | 37039 ft | 493 kts | 122° |
| 2026-05-09 03:02 | 45.99155 | 23.32954 | 37042 ft | 493 kts | 122° |
| 2026-05-09 03:03 | 45.95778 | 23.41543 | 37045 ft | 493 kts | 122° |
| 2026-05-09 03:03 | 45.92403 | 23.50096 | 37039 ft | 493 kts | 122° |
| 2026-05-09 03:04 | 45.89012 | 23.58665 | 37044 ft | 493 kts | 122° |
| 2026-05-09 03:04 | 45.85626 | 23.67198 | 37039 ft | 492 kts | 122° |
| 2026-05-09 03:05 | 45.82231 | 23.75726 | 37045 ft | 492 kts | 122° |
| 2026-05-09 03:05 | 45.78851 | 23.84188 | 37057 ft | 492 kts | 122° |
| 2026-05-09 03:06 | 45.75447 | 23.92686 | 37048 ft | 491 kts | 122° |
| 2026-05-09 03:06 | 45.72046 | 24.01149 | 37048 ft | 491 kts | 122° |
| 2026-05-09 03:07 | 45.68608 | 24.09681 | 37049 ft | 491 kts | 122° |
| 2026-05-09 03:07 | 45.65219 | 24.18063 | 37048 ft | 491 kts | 122° |
| 2026-05-09 03:08 | 45.61797 | 24.26501 | 37045 ft | 491 kts | 122° |
| 2026-05-09 03:08 | 45.58370 | 24.34926 | 37045 ft | 491 kts | 122° |
| 2026-05-09 03:09 | 45.54933 | 24.43350 | 37038 ft | 491 kts | 122° |
| 2026-05-09 03:09 | 45.51492 | 24.51758 | 37036 ft | 490 kts | 122° |
| 2026-05-09 03:10 | 45.48052 | 24.60138 | 37038 ft | 491 kts | 122° |
| 2026-05-09 03:10 | 45.44597 | 24.68533 | 37038 ft | 491 kts | 122° |
| 2026-05-09 03:11 | 45.41142 | 24.76900 | 37035 ft | 491 kts | 122° |
| 2026-05-09 03:11 | 45.37691 | 24.85234 | 37034 ft | 491 kts | 122° |
| 2026-05-09 03:12 | 45.34223 | 24.93583 | 37031 ft | 491 kts | 122° |
| 2026-05-09 03:12 | 45.30748 | 25.01922 | 37032 ft | 491 kts | 123° |
| 2026-05-09 03:13 | 45.25498 | 25.14478 | 37028 ft | 491 kts | 123° |
| 2026-05-09 03:13 | 45.22022 | 25.22758 | 37032 ft | 491 kts | 123° |
| 2026-05-09 03:14 | 45.18528 | 25.31058 | 37025 ft | 491 kts | 123° |
| 2026-05-09 03:14 | 45.15023 | 25.39361 | 37024 ft | 491 kts | 123° |
| 2026-05-09 03:15 | 45.11509 | 25.47659 | 37022 ft | 491 kts | 123° |
| 2026-05-09 03:15 | 45.07988 | 25.55950 | 37022 ft | 491 kts | 123° |
| 2026-05-09 03:16 | 45.04465 | 25.64218 | 37020 ft | 491 kts | 123° |
| 2026-05-09 03:16 | 45.00931 | 25.72490 | 37022 ft | 491 kts | 123° |
| 2026-05-09 03:17 | 44.97404 | 25.80722 | 37018 ft | 490 kts | 123° |
| 2026-05-09 03:17 | 44.93864 | 25.88963 | 37020 ft | 490 kts | 123° |
| 2026-05-09 03:18 | 44.90319 | 25.97187 | 37023 ft | 490 kts | 123° |
| 2026-05-09 03:18 | 44.86782 | 26.05372 | 37019 ft | 490 kts | 123° |
| 2026-05-09 03:19 | 44.83234 | 26.13559 | 37019 ft | 490 kts | 123° |
| 2026-05-09 03:19 | 44.79671 | 26.21755 | 37024 ft | 489 kts | 123° |
| 2026-05-09 03:20 | 44.76110 | 26.29924 | 37020 ft | 489 kts | 123° |
| 2026-05-09 03:20 | 44.72550 | 26.38066 | 37022 ft | 489 kts | 123° |
| 2026-05-09 03:21 | 44.68986 | 26.46195 | 37024 ft | 489 kts | 123° |
| 2026-05-09 03:21 | 44.65411 | 26.54325 | 37020 ft | 490 kts | 123° |
| 2026-05-09 03:22 | 44.61810 | 26.62492 | 37023 ft | 490 kts | 123° |
| 2026-05-09 03:22 | 44.58250 | 26.70543 | 37023 ft | 490 kts | 123° |
| 2026-05-09 03:23 | 44.54648 | 26.78665 | 37023 ft | 490 kts | 123° |
| 2026-05-09 03:23 | 44.51045 | 26.86768 | 37023 ft | 490 kts | 123° |
| 2026-05-09 03:24 | 44.48044 | 26.93497 | 37023 ft | 490 kts | 123° |
| 2026-05-09 03:24 | 44.43821 | 27.02942 | 37015 ft | 490 kts | 123° |
| 2026-05-09 03:25 | 44.40201 | 27.11014 | 37017 ft | 490 kts | 123° |
| 2026-05-09 03:25 | 44.37183 | 27.17725 | 37018 ft | 490 kts | 123° |
| 2026-05-09 03:26 | 44.33556 | 27.25771 | 37016 ft | 490 kts | 123° |
| 2026-05-09 03:26 | 44.29920 | 27.33815 | 37017 ft | 490 kts | 123° |
| 2026-05-09 03:27 | 44.26266 | 27.41875 | 37018 ft | 490 kts | 123° |
| 2026-05-09 03:27 | 44.22620 | 27.49896 | 37023 ft | 490 kts | 123° |
| 2026-05-09 03:28 | 44.18962 | 27.57920 | 37024 ft | 490 kts | 124° |
| 2026-05-09 03:28 | 44.15303 | 27.65925 | 37022 ft | 490 kts | 124° |
| 2026-05-09 03:29 | 44.11609 | 27.73982 | 37022 ft | 490 kts | 124° |
| 2026-05-09 03:29 | 44.07940 | 27.81967 | 37027 ft | 490 kts | 124° |
| 2026-05-09 03:30 | 44.04291 | 27.89883 | 37024 ft | 490 kts | 124° |
| 2026-05-09 03:30 | 44.00617 | 27.97832 | 37026 ft | 490 kts | 124° |
| 2026-05-09 03:31 | 43.96928 | 28.05789 | 37026 ft | 489 kts | 124° |
| 2026-05-09 03:31 | 43.93243 | 28.13720 | 37030 ft | 489 kts | 124° |
| 2026-05-09 03:32 | 43.89542 | 28.21662 | 37030 ft | 489 kts | 124° |
| 2026-05-09 03:32 | 43.85852 | 28.29558 | 37029 ft | 489 kts | 124° |
| 2026-05-09 03:33 | 43.82147 | 28.37468 | 37034 ft | 488 kts | 124° |
| 2026-05-09 03:33 | 43.78445 | 28.45347 | 37035 ft | 488 kts | 124° |
| 2026-05-09 03:34 | 43.74738 | 28.53216 | 37034 ft | 488 kts | 124° |
| 2026-05-09 03:34 | 43.71030 | 28.61065 | 37030 ft | 487 kts | 124° |
| 2026-05-09 03:35 | 43.67323 | 28.68893 | 37054 ft | 487 kts | 124° |
| 2026-05-09 03:35 | 43.63633 | 28.76665 | 37038 ft | 486 kts | 124° |
| 2026-05-09 03:36 | 43.59917 | 28.84468 | 37037 ft | 486 kts | 124° |
| 2026-05-09 03:36 | 43.56172 | 28.92313 | 37064 ft | 486 kts | 124° |
| 2026-05-09 03:37 | 43.52481 | 29.00024 | 37041 ft | 486 kts | 124° |
| 2026-05-09 03:37 | 43.48748 | 29.07802 | 37040 ft | 486 kts | 124° |
| 2026-05-09 03:38 | 43.45012 | 29.15566 | 37064 ft | 486 kts | 124° |
| 2026-05-09 03:38 | 43.41245 | 29.23373 | 37043 ft | 486 kts | 124° |
| 2026-05-09 03:39 | 43.37503 | 29.31109 | 37064 ft | 486 kts | 124° |
| 2026-05-09 03:39 | 43.33782 | 29.38781 | 37064 ft | 486 kts | 124° |
| 2026-05-09 03:40 | 43.30014 | 29.46530 | 37066 ft | 486 kts | 124° |
| 2026-05-09 03:40 | 43.26275 | 29.54197 | 37061 ft | 486 kts | 124° |
| 2026-05-09 03:41 | 43.22486 | 29.61948 | 37061 ft | 485 kts | 124° |
| 2026-05-09 03:41 | 43.18751 | 29.69568 | 37066 ft | 485 kts | 124° |
| 2026-05-09 03:42 | 43.14985 | 29.77233 | 37070 ft | 485 kts | 124° |
| 2026-05-09 03:42 | 43.11203 | 29.84909 | 37068 ft | 486 kts | 124° |
| 2026-05-09 03:43 | 43.07418 | 29.92572 | 37078 ft | 486 kts | 125° |
| 2026-05-09 03:43 | 43.03635 | 30.00211 | 37073 ft | 486 kts | 125° |
| 2026-05-09 03:44 | 42.99839 | 30.07856 | 37076 ft | 486 kts | 125° |
| 2026-05-09 03:44 | 42.96037 | 30.15495 | 37081 ft | 486 kts | 125° |
| 2026-05-09 03:45 | 42.92235 | 30.23114 | 37077 ft | 486 kts | 125° |
| 2026-05-09 03:45 | 42.88419 | 30.30739 | 37080 ft | 486 kts | 125° |
| 2026-05-09 03:46 | 42.84605 | 30.38342 | 37086 ft | 486 kts | 125° |
| 2026-05-09 03:46 | 42.80783 | 30.45944 | 37085 ft | 487 kts | 125° |
| 2026-05-09 03:47 | 42.76950 | 30.53546 | 37085 ft | 487 kts | 125° |
| 2026-05-09 03:47 | 42.73608 | 30.61553 | 37087 ft | 488 kts | 112° |
| 2026-05-09 03:48 | 42.71499 | 30.70278 | 37085 ft | 489 kts | 107° |
| 2026-05-09 03:48 | 42.69591 | 30.79151 | 37090 ft | 490 kts | 107° |
| 2026-05-09 03:49 | 42.67686 | 30.88042 | 37089 ft | 490 kts | 107° |
| 2026-05-09 03:49 | 42.65752 | 30.96909 | 37091 ft | 490 kts | 107° |
| 2026-05-09 03:50 | 42.63798 | 31.05769 | 37092 ft | 490 kts | 107° |
| 2026-05-09 03:50 | 42.61830 | 31.14646 | 37092 ft | 490 kts | 107° |
| 2026-05-09 03:51 | 42.59860 | 31.23496 | 37094 ft | 490 kts | 107° |
| 2026-05-09 03:51 | 42.57879 | 31.32366 | 37098 ft | 491 kts | 107° |
| 2026-05-09 03:52 | 42.55897 | 31.41205 | 37102 ft | 491 kts | 108° |
| 2026-05-09 03:52 | 42.53900 | 31.50072 | 37100 ft | 491 kts | 108° |
| 2026-05-09 03:53 | 42.51903 | 31.58908 | 37098 ft | 491 kts | 108° |
| 2026-05-09 03:53 | 42.49891 | 31.67769 | 37103 ft | 491 kts | 108° |
| 2026-05-09 03:54 | 42.47873 | 31.76622 | 37102 ft | 492 kts | 108° |
| 2026-05-09 03:54 | 42.45852 | 31.85456 | 37102 ft | 492 kts | 108° |
| 2026-05-09 03:55 | 42.43817 | 31.94312 | 37104 ft | 492 kts | 108° |
| 2026-05-09 03:55 | 42.41775 | 32.03167 | 37103 ft | 492 kts | 108° |
| 2026-05-09 03:56 | 42.39728 | 32.12003 | 37107 ft | 493 kts | 108° |
| 2026-05-09 03:56 | 42.37669 | 32.20859 | 37105 ft | 493 kts | 108° |
| 2026-05-09 03:57 | 42.35605 | 32.29700 | 37115 ft | 493 kts | 108° |
| 2026-05-09 03:57 | 42.33546 | 32.38488 | 37109 ft | 494 kts | 108° |
| 2026-05-09 03:58 | 42.31456 | 32.47368 | 37113 ft | 494 kts | 108° |
| 2026-05-09 03:58 | 42.29366 | 32.56221 | 37116 ft | 494 kts | 108° |
| 2026-05-09 03:59 | 42.27270 | 32.65057 | 37115 ft | 495 kts | 108° |
| 2026-05-09 03:59 | 42.25166 | 32.73895 | 37116 ft | 495 kts | 108° |
| 2026-05-09 04:00 | 42.23047 | 32.82761 | 37111 ft | 495 kts | 108° |
| 2026-05-09 04:00 | 42.20931 | 32.91583 | 37113 ft | 495 kts | 108° |
| 2026-05-09 04:01 | 42.18812 | 33.00381 | 37119 ft | 496 kts | 108° |
| 2026-05-09 04:01 | 42.16677 | 33.09214 | 37122 ft | 496 kts | 108° |
| 2026-05-09 04:02 | 42.14531 | 33.18056 | 37116 ft | 496 kts | 108° |
| 2026-05-09 04:02 | 42.12369 | 33.26929 | 37129 ft | 497 kts | 108° |
| 2026-05-09 04:03 | 42.10217 | 33.35729 | 37123 ft | 497 kts | 108° |
| 2026-05-09 04:03 | 42.08035 | 33.44617 | 37133 ft | 498 kts | 108° |
| 2026-05-09 04:04 | 42.05858 | 33.53451 | 37127 ft | 498 kts | 108° |
| 2026-05-09 04:04 | 42.03678 | 33.62263 | 37131 ft | 499 kts | 109° |
| 2026-05-09 04:05 | 42.01478 | 33.71121 | 37137 ft | 500 kts | 109° |
| 2026-05-09 04:05 | 41.99268 | 33.79990 | 37128 ft | 500 kts | 109° |
| 2026-05-09 04:06 | 41.97053 | 33.88842 | 37133 ft | 501 kts | 109° |
| 2026-05-09 04:06 | 41.94827 | 33.97706 | 37131 ft | 501 kts | 109° |
| 2026-05-09 04:07 | 41.92588 | 34.06590 | 37130 ft | 502 kts | 109° |
| 2026-05-09 04:07 | 41.90343 | 34.15462 | 37138 ft | 502 kts | 109° |
| 2026-05-09 04:08 | 41.88082 | 34.24363 | 37134 ft | 503 kts | 109° |
| 2026-05-09 04:08 | 41.85825 | 34.33215 | 37129 ft | 504 kts | 109° |
| 2026-05-09 04:09 | 41.83548 | 34.42112 | 37130 ft | 504 kts | 109° |
| 2026-05-09 04:09 | 41.81259 | 34.51024 | 37128 ft | 504 kts | 109° |
| 2026-05-09 04:10 | 41.78970 | 34.59904 | 37128 ft | 505 kts | 109° |
| 2026-05-09 04:10 | 41.76667 | 34.68807 | 37136 ft | 505 kts | 109° |
| 2026-05-09 04:11 | 41.74750 | 34.76190 | 37140 ft | 506 kts | 109° |
| 2026-05-09 04:11 | 41.72434 | 34.85082 | 37131 ft | 506 kts | 109° |
| 2026-05-09 04:12 | 41.70105 | 34.93986 | 37131 ft | 507 kts | 109° |
| 2026-05-09 04:12 | 41.67768 | 35.02890 | 37135 ft | 507 kts | 109° |
| 2026-05-09 04:13 | 41.65422 | 35.11800 | 37132 ft | 508 kts | 109° |
| 2026-05-09 04:13 | 41.63065 | 35.20715 | 37133 ft | 508 kts | 109° |
| 2026-05-09 04:14 | 41.60705 | 35.29609 | 37128 ft | 508 kts | 109° |
| 2026-05-09 04:14 | 41.58336 | 35.38506 | 37119 ft | 509 kts | 109° |
| 2026-05-09 04:15 | 41.55954 | 35.47419 | 37120 ft | 509 kts | 109° |
| 2026-05-09 04:15 | 41.53568 | 35.56315 | 37123 ft | 510 kts | 109° |
| 2026-05-09 04:16 | 41.51184 | 35.65172 | 37117 ft | 510 kts | 109° |
| 2026-05-09 04:16 | 41.48768 | 35.74117 | 37121 ft | 511 kts | 109° |
| 2026-05-09 04:17 | 41.46364 | 35.82982 | 37120 ft | 511 kts | 109° |
| 2026-05-09 04:17 | 41.43942 | 35.91881 | 37127 ft | 512 kts | 109° |
| 2026-05-09 04:18 | 41.41505 | 36.00806 | 37142 ft | 512 kts | 109° |
| 2026-05-09 04:18 | 41.39069 | 36.09703 | 37133 ft | 513 kts | 110° |
| 2026-05-09 04:19 | 41.36602 | 36.18668 | 37143 ft | 514 kts | 110° |
| 2026-05-09 04:19 | 41.34138 | 36.27593 | 37149 ft | 515 kts | 110° |
| 2026-05-09 04:20 | 41.31661 | 36.36533 | 37151 ft | 515 kts | 110° |
| 2026-05-09 04:20 | 41.29174 | 36.45482 | 37156 ft | 516 kts | 110° |
| 2026-05-09 04:21 | 41.26856 | 36.54489 | 37385 ft | 515 kts | 102° |
| 2026-05-09 04:21 | 41.25839 | 36.63855 | 37867 ft | 512 kts | 95° |
| 2026-05-09 04:22 | 41.25483 | 36.68542 | 38067 ft | 512 kts | 94° |
| 2026-05-09 04:22 | 41.25149 | 36.73275 | 38245 ft | 512 kts | 94° |
| 2026-05-09 04:22 | 41.24821 | 36.77975 | 38432 ft | 512 kts | 94° |
| 2026-05-09 04:22 | 41.24486 | 36.82703 | 38609 ft | 512 kts | 94° |
| 2026-05-09 04:23 | 41.24145 | 36.87384 | 38772 ft | 512 kts | 95° |
| 2026-05-09 04:23 | 41.23794 | 36.92093 | 38915 ft | 512 kts | 95° |
| 2026-05-09 04:23 | 41.23437 | 36.96818 | 39060 ft | 512 kts | 95° |
| 2026-05-09 04:24 | 41.22714 | 37.06235 | 39155 ft | 516 kts | 95° |
| 2026-05-09 04:24 | 41.21976 | 37.15741 | 39158 ft | 517 kts | 95° |
| 2026-05-09 04:25 | 41.21236 | 37.25217 | 39144 ft | 516 kts | 94° |
| 2026-05-09 04:25 | 41.20535 | 37.34725 | 39157 ft | 516 kts | 94° |
| 2026-05-09 04:26 | 41.19848 | 37.44135 | 39161 ft | 516 kts | 94° |
| 2026-05-09 04:26 | 41.19140 | 37.53638 | 39155 ft | 517 kts | 94° |
| 2026-05-09 04:27 | 41.18524 | 37.63126 | 39155 ft | 517 kts | 92° |
| 2026-05-09 04:27 | 41.17867 | 37.72630 | 39157 ft | 517 kts | 95° |
| 2026-05-09 04:28 | 41.17029 | 37.82115 | 39150 ft | 518 kts | 95° |
| 2026-05-09 04:28 | 41.16184 | 37.91621 | 39168 ft | 518 kts | 95° |
| 2026-05-09 04:29 | 41.15416 | 38.01064 | 39151 ft | 518 kts | 94° |
| 2026-05-09 04:29 | 41.14662 | 38.10572 | 39154 ft | 518 kts | 94° |
| 2026-05-09 04:30 | 41.13896 | 38.20075 | 39154 ft | 519 kts | 94° |
| 2026-05-09 04:30 | 41.13117 | 38.29581 | 39156 ft | 519 kts | 94° |
| 2026-05-09 04:31 | 41.12335 | 38.39114 | 39154 ft | 519 kts | 94° |
| 2026-05-09 04:31 | 41.11540 | 38.48620 | 39155 ft | 519 kts | 94° |
| 2026-05-09 04:32 | 41.10740 | 38.58120 | 39158 ft | 519 kts | 94° |
| 2026-05-09 04:32 | 41.09932 | 38.67631 | 39157 ft | 519 kts | 95° |
| 2026-05-09 04:33 | 41.09100 | 38.77109 | 39160 ft | 519 kts | 95° |
| 2026-05-09 04:33 | 41.08230 | 38.86621 | 39160 ft | 518 kts | 95° |
| 2026-05-09 04:34 | 41.07355 | 38.96105 | 39164 ft | 518 kts | 95° |
| 2026-05-09 04:34 | 41.06486 | 39.05512 | 39162 ft | 518 kts | 95° |
| 2026-05-09 04:35 | 41.05675 | 39.14256 | 39163 ft | 518 kts | 95° |
| 2026-05-09 04:35 | 41.04801 | 39.23796 | 39163 ft | 517 kts | 95° |
| 2026-05-09 04:36 | 41.03934 | 39.33182 | 39161 ft | 517 kts | 95° |
| 2026-05-09 04:36 | 41.03054 | 39.42624 | 39162 ft | 517 kts | 95° |
| 2026-05-09 04:37 | 41.02166 | 39.52064 | 39174 ft | 516 kts | 95° |
| 2026-05-09 04:37 | 41.01270 | 39.61492 | 39181 ft | 516 kts | 95° |
| 2026-05-09 04:38 | 41.00359 | 39.70993 | 39185 ft | 516 kts | 95° |
| 2026-05-09 04:38 | 40.99560 | 39.80420 | 39188 ft | 514 kts | 90° |
| 2026-05-09 04:39 | 40.99274 | 39.89807 | 39185 ft | 514 kts | 89° |
| 2026-05-09 04:39 | 40.99052 | 39.99250 | 39179 ft | 514 kts | 89° |
| 2026-05-09 04:40 | 40.98830 | 40.08684 | 39176 ft | 514 kts | 89° |
| 2026-05-09 04:40 | 40.98593 | 40.18141 | 39175 ft | 513 kts | 90° |
| 2026-05-09 04:41 | 40.98349 | 40.27578 | 39171 ft | 513 kts | 90° |
| 2026-05-09 04:41 | 40.98085 | 40.37032 | 39171 ft | 513 kts | 90° |
| 2026-05-09 04:42 | 40.97812 | 40.46474 | 39171 ft | 513 kts | 90° |
| 2026-05-09 04:42 | 40.97535 | 40.55901 | 39170 ft | 513 kts | 90° |
| 2026-05-09 04:43 | 40.97253 | 40.65273 | 39169 ft | 513 kts | 90° |
| 2026-05-09 04:43 | 40.96961 | 40.74700 | 39170 ft | 513 kts | 90° |
| 2026-05-09 04:44 | 40.96663 | 40.84131 | 39168 ft | 513 kts | 90° |
| 2026-05-09 04:44 | 40.96362 | 40.93545 | 39171 ft | 513 kts | 90° |
| 2026-05-09 04:45 | 40.96045 | 41.03053 | 39176 ft | 512 kts | 90° |
| 2026-05-09 04:45 | 40.95722 | 41.12408 | 39192 ft | 512 kts | 91° |
| 2026-05-09 04:46 | 40.95391 | 41.21801 | 39204 ft | 512 kts | 91° |
| 2026-05-09 04:46 | 40.95050 | 41.31304 | 39211 ft | 513 kts | 91° |
| 2026-05-09 04:47 | 40.94707 | 41.40654 | 39216 ft | 513 kts | 91° |
| 2026-05-09 04:47 | 40.94358 | 41.50063 | 39227 ft | 513 kts | 91° |
| 2026-05-09 04:48 | 40.93995 | 41.59498 | 39234 ft | 513 kts | 91° |
| 2026-05-09 04:48 | 40.93627 | 41.68896 | 39235 ft | 512 kts | 91° |
| 2026-05-09 04:49 | 40.93250 | 41.78312 | 39246 ft | 513 kts | 91° |
| 2026-05-09 04:49 | 40.92864 | 41.87749 | 39247 ft | 512 kts | 91° |
| 2026-05-09 04:50 | 40.92474 | 41.97128 | 39247 ft | 512 kts | 91° |
| 2026-05-09 04:50 | 40.92076 | 42.06525 | 39251 ft | 512 kts | 92° |
| 2026-05-09 04:51 | 40.91670 | 42.15931 | 39256 ft | 512 kts | 92° |
| 2026-05-09 04:51 | 40.91257 | 42.25328 | 39255 ft | 512 kts | 92° |
| 2026-05-09 04:52 | 40.90836 | 42.34705 | 39266 ft | 512 kts | 92° |
| 2026-05-09 04:52 | 40.90409 | 42.44043 | 39256 ft | 512 kts | 92° |
| 2026-05-09 04:53 | 40.89971 | 42.53496 | 39275 ft | 511 kts | 92° |
| 2026-05-09 04:53 | 40.89531 | 42.62805 | 39280 ft | 511 kts | 92° |
| 2026-05-09 04:54 | 40.89081 | 42.72158 | 39288 ft | 511 kts | 92° |
| 2026-05-09 04:54 | 40.88623 | 42.81531 | 39287 ft | 510 kts | 92° |
| 2026-05-09 04:55 | 40.88157 | 42.90899 | 39276 ft | 510 kts | 92° |
| 2026-05-09 04:55 | 40.87684 | 43.00243 | 39280 ft | 510 kts | 92° |
| 2026-05-09 04:56 | 40.87205 | 43.09571 | 39277 ft | 510 kts | 92° |
| 2026-05-09 04:56 | 40.86717 | 43.18931 | 39272 ft | 510 kts | 93° |
| 2026-05-09 04:57 | 40.86222 | 43.28269 | 39284 ft | 510 kts | 93° |
| 2026-05-09 04:57 | 40.85720 | 43.37604 | 39275 ft | 509 kts | 93° |
| 2026-05-09 04:58 | 40.85210 | 43.46940 | 39279 ft | 509 kts | 93° |
| 2026-05-09 04:58 | 40.84693 | 43.56268 | 39282 ft | 509 kts | 93° |
| 2026-05-09 04:59 | 40.84172 | 43.65542 | 39285 ft | 509 kts | 93° |
| 2026-05-09 04:59 | 40.83703 | 43.74867 | 39290 ft | 509 kts | 91° |
| 2026-05-09 05:00 | 40.83433 | 43.84271 | 39290 ft | 509 kts | 91° |
| 2026-05-09 05:00 | 40.83178 | 43.93612 | 39290 ft | 509 kts | 91° |
| 2026-05-09 05:01 | 40.82876 | 44.02907 | 39284 ft | 508 kts | 91° |
| 2026-05-09 05:01 | 40.82551 | 44.12188 | 39282 ft | 508 kts | 92° |
| 2026-05-09 05:02 | 40.82217 | 44.21499 | 39268 ft | 508 kts | 92° |
| 2026-05-09 05:02 | 40.81877 | 44.30829 | 39257 ft | 508 kts | 92° |
| 2026-05-09 05:03 | 40.81531 | 44.40130 | 39248 ft | 508 kts | 92° |
| 2026-05-09 05:03 | 40.81177 | 44.49453 | 39245 ft | 508 kts | 92° |
| 2026-05-09 05:04 | 40.80876 | 44.57197 | 39241 ft | 508 kts | 92° |
| 2026-05-09 05:04 | 40.80509 | 44.66507 | 39236 ft | 508 kts | 92° |
| 2026-05-09 05:05 | 40.80134 | 44.75824 | 39232 ft | 508 kts | 92° |
| 2026-05-09 05:05 | 40.79751 | 44.85140 | 39232 ft | 509 kts | 92° |
| 2026-05-09 05:06 | 40.79360 | 44.94456 | 39227 ft | 508 kts | 92° |
| 2026-05-09 05:06 | 40.78962 | 45.03764 | 39225 ft | 508 kts | 92° |
| 2026-05-09 05:07 | 40.78556 | 45.13083 | 39225 ft | 509 kts | 93° |
| 2026-05-09 05:07 | 40.78144 | 45.22389 | 39222 ft | 508 kts | 93° |
| 2026-05-09 05:08 | 40.77726 | 45.31659 | 39217 ft | 509 kts | 93° |
| 2026-05-09 05:08 | 40.77298 | 45.40949 | 39219 ft | 509 kts | 93° |
| 2026-05-09 05:09 | 40.76863 | 45.50261 | 39219 ft | 509 kts | 93° |
| 2026-05-09 05:09 | 40.76207 | 45.59560 | 39213 ft | 509 kts | 97° |
| 2026-05-09 05:10 | 40.75276 | 45.68806 | 39211 ft | 509 kts | 97° |
| 2026-05-09 05:10 | 40.74366 | 45.78054 | 39210 ft | 509 kts | 97° |
| 2026-05-09 05:11 | 40.73496 | 45.87352 | 39210 ft | 509 kts | 97° |
| 2026-05-09 05:11 | 40.72640 | 45.96620 | 39196 ft | 509 kts | 97° |
| 2026-05-09 05:12 | 40.71779 | 46.05884 | 39192 ft | 510 kts | 97° |
| 2026-05-09 05:12 | 40.70913 | 46.15091 | 39189 ft | 510 kts | 97° |
| 2026-05-09 05:13 | 40.70026 | 46.24429 | 39180 ft | 510 kts | 97° |
| 2026-05-09 05:13 | 40.69138 | 46.33692 | 39183 ft | 510 kts | 97° |
| 2026-05-09 05:14 | 40.68247 | 46.42907 | 39183 ft | 510 kts | 97° |
| 2026-05-09 05:14 | 40.67343 | 46.52174 | 39184 ft | 511 kts | 98° |
| 2026-05-09 05:15 | 40.66433 | 46.61426 | 39181 ft | 511 kts | 98° |
| 2026-05-09 05:15 | 40.65511 | 46.70727 | 39181 ft | 511 kts | 98° |
| 2026-05-09 05:16 | 40.64584 | 46.80004 | 39180 ft | 511 kts | 98° |
| 2026-05-09 05:16 | 40.63649 | 46.89276 | 39182 ft | 511 kts | 98° |
| 2026-05-09 05:17 | 40.62711 | 46.98504 | 39180 ft | 511 kts | 98° |
| 2026-05-09 05:17 | 40.61757 | 47.07817 | 39181 ft | 511 kts | 98° |
| 2026-05-09 05:18 | 40.60816 | 47.17092 | 39180 ft | 511 kts | 97° |
| 2026-05-09 05:18 | 40.60423 | 47.26414 | 39186 ft | 512 kts | 93° |
| 2026-05-09 05:19 | 40.60163 | 47.35785 | 39188 ft | 512 kts | 93° |
| 2026-05-09 05:19 | 40.59908 | 47.45123 | 39187 ft | 512 kts | 93° |
| 2026-05-09 05:20 | 40.59634 | 47.54517 | 39198 ft | 512 kts | 93° |
| 2026-05-09 05:20 | 40.59348 | 47.63859 | 39200 ft | 512 kts | 94° |
| 2026-05-09 05:21 | 40.59053 | 47.73234 | 39211 ft | 513 kts | 94° |
| 2026-05-09 05:21 | 40.58751 | 47.82556 | 39199 ft | 513 kts | 94° |
| 2026-05-09 05:22 | 40.58441 | 47.91940 | 39199 ft | 513 kts | 94° |
| 2026-05-09 05:22 | 40.58270 | 48.01333 | 39198 ft | 515 kts | 90° |
| 2026-05-09 05:23 | 40.58620 | 48.10748 | 39195 ft | 516 kts | 88° |
| 2026-05-09 05:23 | 40.59007 | 48.20168 | 39190 ft | 516 kts | 89° |
| 2026-05-09 05:24 | 40.59303 | 48.29686 | 39203 ft | 517 kts | 89° |
| 2026-05-09 05:24 | 40.59538 | 48.39080 | 39186 ft | 517 kts | 90° |
| 2026-05-09 05:25 | 40.59762 | 48.48530 | 39186 ft | 518 kts | 90° |
| 2026-05-09 05:25 | 40.60093 | 48.62746 | 39189 ft | 519 kts | 90° |
| 2026-05-09 05:26 | 40.60309 | 48.72255 | 39182 ft | 520 kts | 90° |
| 2026-05-09 05:26 | 40.60514 | 48.81752 | 39178 ft | 520 kts | 90° |
| 2026-05-09 05:27 | 40.60713 | 48.91252 | 39171 ft | 520 kts | 90° |
| 2026-05-09 05:27 | 40.60905 | 49.00785 | 39164 ft | 521 kts | 90° |
| 2026-05-09 05:28 | 40.61088 | 49.10311 | 39159 ft | 521 kts | 90° |
| 2026-05-09 05:28 | 40.61025 | 49.19838 | 39153 ft | 519 kts | 99° |
| 2026-05-09 05:29 | 40.59772 | 49.29175 | 39146 ft | 517 kts | 104° |
| 2026-05-09 05:29 | 40.58311 | 49.38428 | 39146 ft | 517 kts | 104° |
| 2026-05-09 05:30 | 40.56821 | 49.47689 | 39140 ft | 517 kts | 104° |
| 2026-05-09 05:30 | 40.55308 | 49.56946 | 39140 ft | 517 kts | 105° |
| 2026-05-09 05:31 | 40.53769 | 49.66179 | 39136 ft | 517 kts | 105° |
| 2026-05-09 05:31 | 40.52229 | 49.75414 | 39129 ft | 517 kts | 105° |
| 2026-05-09 05:32 | 40.50690 | 49.84637 | 39128 ft | 517 kts | 105° |
| 2026-05-09 05:32 | 40.49143 | 49.93873 | 39128 ft | 517 kts | 105° |
| 2026-05-09 05:33 | 40.47588 | 50.03100 | 39129 ft | 517 kts | 105° |
| 2026-05-09 05:33 | 40.46144 | 50.12361 | 39129 ft | 519 kts | 103° |
| 2026-05-09 05:34 | 40.44962 | 50.21668 | 39129 ft | 519 kts | 102° |
| 2026-05-09 05:34 | 40.43773 | 50.31017 | 39132 ft | 519 kts | 103° |
| 2026-05-09 05:35 | 40.42532 | 50.40349 | 39134 ft | 519 kts | 103° |
| 2026-05-09 05:35 | 40.41263 | 50.49674 | 39140 ft | 519 kts | 104° |
| 2026-05-09 05:36 | 40.39979 | 50.59022 | 39146 ft | 520 kts | 104° |
| 2026-05-09 05:36 | 40.38693 | 50.68339 | 39149 ft | 520 kts | 104° |
| 2026-05-09 05:37 | 40.37397 | 50.77689 | 39153 ft | 521 kts | 104° |
| 2026-05-09 05:37 | 40.36096 | 50.87014 | 39155 ft | 521 kts | 104° |
| 2026-05-09 05:38 | 40.34782 | 50.96378 | 39157 ft | 521 kts | 104° |
| 2026-05-09 05:38 | 40.33464 | 51.05709 | 39162 ft | 522 kts | 105° |
| 2026-05-09 05:39 | 40.32135 | 51.15066 | 39164 ft | 522 kts | 105° |
| 2026-05-09 05:39 | 40.30798 | 51.24419 | 39162 ft | 523 kts | 105° |
| 2026-05-09 05:40 | 40.29452 | 51.33779 | 39172 ft | 523 kts | 105° |
| 2026-05-09 05:40 | 40.28098 | 51.43138 | 39162 ft | 523 kts | 105° |
| 2026-05-09 05:41 | 40.26744 | 51.52454 | 39169 ft | 523 kts | 105° |
| 2026-05-09 05:41 | 40.25381 | 51.61798 | 39167 ft | 523 kts | 106° |
| 2026-05-09 05:42 | 40.23994 | 51.71193 | 39167 ft | 523 kts | 106° |
| 2026-05-09 05:42 | 40.22616 | 51.80492 | 39165 ft | 523 kts | 106° |
| 2026-05-09 05:43 | 40.21223 | 51.89841 | 39169 ft | 523 kts | 106° |
| 2026-05-09 05:43 | 40.19826 | 51.99171 | 39171 ft | 523 kts | 106° |
| 2026-05-09 05:44 | 40.18414 | 52.08544 | 39167 ft | 523 kts | 107° |
| 2026-05-09 05:44 | 40.17008 | 52.17825 | 39167 ft | 522 kts | 107° |
| 2026-05-09 05:45 | 40.15595 | 52.27100 | 39172 ft | 522 kts | 107° |
| 2026-05-09 05:45 | 40.14164 | 52.36438 | 39171 ft | 522 kts | 107° |
| 2026-05-09 05:46 | 40.12731 | 52.45737 | 39174 ft | 522 kts | 107° |
| 2026-05-09 05:46 | 40.11293 | 52.55015 | 39174 ft | 522 kts | 107° |
| 2026-05-09 05:47 | 40.09845 | 52.64308 | 39175 ft | 522 kts | 108° |
| 2026-05-09 05:47 | 40.08387 | 52.73610 | 39181 ft | 522 kts | 108° |
| 2026-05-09 05:48 | 40.06927 | 52.82877 | 39181 ft | 522 kts | 108° |
| 2026-05-09 05:48 | 40.05457 | 52.92153 | 39183 ft | 522 kts | 108° |
| 2026-05-09 05:49 | 40.03854 | 53.01376 | 39185 ft | 517 kts | 115° |
| 2026-05-09 05:49 | 40.01495 | 53.10207 | 39179 ft | 514 kts | 117° |
| 2026-05-09 05:50 | 39.99007 | 53.18950 | 39180 ft | 514 kts | 117° |
| 2026-05-09 05:50 | 39.96504 | 53.27665 | 39177 ft | 514 kts | 117° |
| 2026-05-09 05:51 | 39.93999 | 53.36407 | 39173 ft | 515 kts | 117° |
| 2026-05-09 05:51 | 39.91499 | 53.45130 | 39175 ft | 515 kts | 117° |
| 2026-05-09 05:52 | 39.89000 | 53.53825 | 39164 ft | 516 kts | 118° |
| 2026-05-09 05:52 | 39.86472 | 53.62590 | 39161 ft | 517 kts | 118° |
| 2026-05-09 05:53 | 39.83938 | 53.71344 | 39158 ft | 518 kts | 118° |
| 2026-05-09 05:53 | 39.81805 | 53.78691 | 39159 ft | 518 kts | 118° |
| 2026-05-09 05:54 | 39.78834 | 53.88890 | 39159 ft | 519 kts | 118° |
| 2026-05-09 05:54 | 39.76685 | 53.96246 | 39157 ft | 520 kts | 118° |
| 2026-05-09 05:55 | 39.74112 | 54.05024 | 39159 ft | 520 kts | 118° |
| 2026-05-09 05:55 | 39.71530 | 54.13801 | 39157 ft | 521 kts | 118° |
| 2026-05-09 05:56 | 39.68940 | 54.22579 | 39163 ft | 521 kts | 118° |
| 2026-05-09 05:56 | 39.66338 | 54.31369 | 39159 ft | 521 kts | 118° |
| 2026-05-09 05:57 | 39.63748 | 54.40088 | 39174 ft | 521 kts | 118° |
| 2026-05-09 05:57 | 39.61127 | 54.48887 | 39147 ft | 520 kts | 118° |
| 2026-05-09 05:58 | 39.58531 | 54.57572 | 39161 ft | 519 kts | 118° |
| 2026-05-09 05:58 | 39.55917 | 54.66288 | 39163 ft | 519 kts | 119° |
| 2026-05-09 05:59 | 39.53277 | 54.75053 | 39166 ft | 518 kts | 119° |
| 2026-05-09 05:59 | 39.50654 | 54.83742 | 39162 ft | 518 kts | 119° |
| 2026-05-09 06:00 | 39.48040 | 54.92375 | 39172 ft | 517 kts | 119° |
| 2026-05-09 06:00 | 39.45414 | 55.01021 | 39165 ft | 517 kts | 120° |
| 2026-05-09 06:01 | 39.42775 | 55.09682 | 39169 ft | 517 kts | 120° |
| 2026-05-09 06:01 | 39.40130 | 55.18330 | 39170 ft | 516 kts | 120° |
| 2026-05-09 06:02 | 39.37488 | 55.26941 | 39169 ft | 516 kts | 120° |
| 2026-05-09 06:02 | 39.34831 | 55.35575 | 39169 ft | 516 kts | 120° |
| 2026-05-09 06:03 | 39.32173 | 55.44184 | 39168 ft | 517 kts | 121° |
| 2026-05-09 06:03 | 39.29497 | 55.52824 | 39167 ft | 517 kts | 121° |
| 2026-05-09 06:04 | 39.26759 | 55.61358 | 39168 ft | 513 kts | 124° |
| 2026-05-09 06:04 | 39.23571 | 55.69550 | 39167 ft | 510 kts | 127° |
| 2026-05-09 06:05 | 39.20299 | 55.77680 | 39167 ft | 512 kts | 127° |
| 2026-05-09 06:05 | 39.17080 | 55.85885 | 39167 ft | 514 kts | 127° |
| 2026-05-09 06:06 | 39.13892 | 55.94136 | 39162 ft | 515 kts | 126° |
| 2026-05-09 06:06 | 39.10708 | 56.02381 | 39162 ft | 517 kts | 127° |
| 2026-05-09 06:07 | 39.07484 | 56.10701 | 39160 ft | 518 kts | 127° |
| 2026-05-09 06:07 | 39.04274 | 56.18953 | 39157 ft | 519 kts | 127° |
| 2026-05-09 06:08 | 39.01036 | 56.27256 | 39162 ft | 520 kts | 127° |
| 2026-05-09 06:08 | 38.98306 | 56.35990 | 39165 ft | 530 kts | 119° |
| 2026-05-09 06:09 | 38.95845 | 56.44935 | 39165 ft | 532 kts | 118° |
| 2026-05-09 06:09 | 38.93404 | 56.53915 | 39163 ft | 531 kts | 118° |
| 2026-05-09 06:10 | 38.90948 | 56.62869 | 39163 ft | 531 kts | 119° |
| 2026-05-09 06:10 | 38.88478 | 56.71798 | 39164 ft | 531 kts | 119° |
| 2026-05-09 06:11 | 38.85998 | 56.80715 | 39162 ft | 531 kts | 119° |
| 2026-05-09 06:11 | 38.83512 | 56.89629 | 39165 ft | 531 kts | 119° |
| 2026-05-09 06:12 | 38.81014 | 56.98555 | 39164 ft | 532 kts | 119° |
| 2026-05-09 06:12 | 38.78516 | 57.07453 | 39170 ft | 532 kts | 119° |
| 2026-05-09 06:13 | 38.75997 | 57.16398 | 39166 ft | 532 kts | 119° |
| 2026-05-09 06:13 | 38.73483 | 57.25294 | 39165 ft | 533 kts | 119° |
| 2026-05-09 06:14 | 38.70946 | 57.34238 | 39161 ft | 533 kts | 119° |
| 2026-05-09 06:14 | 38.68408 | 57.43154 | 39160 ft | 534 kts | 119° |
| 2026-05-09 06:15 | 38.65873 | 57.52033 | 39162 ft | 534 kts | 119° |
| 2026-05-09 06:15 | 38.63306 | 57.60995 | 39161 ft | 535 kts | 119° |
| 2026-05-09 06:16 | 38.60727 | 57.69866 | 39154 ft | 532 kts | 122° |
| 2026-05-09 06:16 | 38.57734 | 57.78497 | 39155 ft | 527 kts | 125° |
| 2026-05-09 06:17 | 38.54644 | 57.86936 | 39155 ft | 528 kts | 125° |
| 2026-05-09 06:17 | 38.51590 | 57.95453 | 39153 ft | 528 kts | 124° |
| 2026-05-09 06:18 | 38.48570 | 58.04008 | 39155 ft | 528 kts | 124° |
| 2026-05-09 06:18 | 38.45558 | 58.12559 | 39146 ft | 527 kts | 124° |
| 2026-05-09 06:19 | 38.42544 | 58.21082 | 39145 ft | 526 kts | 124° |
| 2026-05-09 06:19 | 38.39766 | 58.29768 | 39151 ft | 539 kts | 115° |
| 2026-05-09 06:20 | 38.37806 | 58.38985 | 39137 ft | 543 kts | 113° |
| 2026-05-09 06:20 | 38.35962 | 58.48368 | 39140 ft | 544 kts | 113° |
| 2026-05-09 06:21 | 38.34118 | 58.57737 | 39129 ft | 545 kts | 113° |
| 2026-05-09 06:21 | 38.32246 | 58.67096 | 39139 ft | 546 kts | 113° |
| 2026-05-09 06:22 | 38.30355 | 58.76449 | 39128 ft | 546 kts | 113° |
| 2026-05-09 06:22 | 38.28462 | 58.85765 | 39127 ft | 547 kts | 113° |
| 2026-05-09 06:23 | 38.26548 | 58.95148 | 39128 ft | 548 kts | 113° |
| 2026-05-09 06:23 | 38.24626 | 59.04537 | 39117 ft | 549 kts | 113° |
| 2026-05-09 06:24 | 38.22686 | 59.13970 | 39124 ft | 550 kts | 113° |
| 2026-05-09 06:24 | 38.20748 | 59.23355 | 39116 ft | 551 kts | 113° |
| 2026-05-09 06:25 | 38.18787 | 59.32806 | 39116 ft | 552 kts | 113° |
| 2026-05-09 06:25 | 38.16821 | 59.42237 | 39108 ft | 553 kts | 113° |
| 2026-05-09 06:26 | 38.14841 | 59.51699 | 39101 ft | 554 kts | 113° |
| 2026-05-09 06:26 | 38.12850 | 59.61168 | 39102 ft | 555 kts | 113° |
| 2026-05-09 06:27 | 38.10850 | 59.70643 | 39101 ft | 556 kts | 113° |
| 2026-05-09 06:27 | 38.08840 | 59.80125 | 39102 ft | 557 kts | 113° |
| 2026-05-09 06:28 | 38.06829 | 59.89565 | 39092 ft | 557 kts | 113° |
| 2026-05-09 06:28 | 38.04802 | 59.99045 | 39093 ft | 558 kts | 113° |
| 2026-05-09 06:29 | 38.02761 | 60.08547 | 39086 ft | 558 kts | 113° |
| 2026-05-09 06:29 | 38.00717 | 60.18027 | 39081 ft | 557 kts | 113° |
| 2026-05-09 06:30 | 37.98665 | 60.27510 | 39080 ft | 557 kts | 113° |
| 2026-05-09 06:30 | 37.96593 | 60.36985 | 39074 ft | 557 kts | 113° |
| 2026-05-09 06:31 | 37.94516 | 60.46449 | 39072 ft | 558 kts | 113° |
| 2026-05-09 06:31 | 37.92432 | 60.55910 | 39072 ft | 558 kts | 113° |
| 2026-05-09 06:32 | 37.90344 | 60.65361 | 39069 ft | 559 kts | 113° |
| 2026-05-09 06:33 | 37.87182 | 60.79596 | 39064 ft | 560 kts | 113° |
| 2026-05-09 06:33 | 37.85069 | 60.89060 | 39064 ft | 560 kts | 113° |
| 2026-05-09 06:34 | 37.81876 | 61.03288 | 39055 ft | 561 kts | 113° |
| 2026-05-09 06:34 | 37.79739 | 61.12759 | 39056 ft | 561 kts | 113° |
| 2026-05-09 06:35 | 37.77603 | 61.22189 | 39057 ft | 561 kts | 113° |
| 2026-05-09 06:35 | 37.75434 | 61.31727 | 39049 ft | 561 kts | 113° |
| 2026-05-09 06:36 | 37.73274 | 61.41181 | 39053 ft | 561 kts | 113° |
| 2026-05-09 06:36 | 37.71103 | 61.50649 | 39059 ft | 561 kts | 113° |
| 2026-05-09 06:37 | 37.68940 | 61.60042 | 39036 ft | 561 kts | 113° |
| 2026-05-09 06:37 | 37.66754 | 61.69497 | 39048 ft | 561 kts | 113° |
| 2026-05-09 06:38 | 37.64555 | 61.78966 | 39046 ft | 562 kts | 113° |
| 2026-05-09 06:38 | 37.62112 | 61.88251 | 39046 ft | 552 kts | 123° |
| 2026-05-09 06:39 | 37.60237 | 61.92415 | 39052 ft | 539 kts | 133° |
| 2026-05-09 06:39 | 37.58107 | 61.96287 | 39045 ft | 537 kts | 135° |
| 2026-05-09 06:39 | 37.53662 | 62.03858 | 39046 ft | 536 kts | 136° |
| 2026-05-09 06:40 | 37.49180 | 62.11362 | 39044 ft | 537 kts | 136° |
| 2026-05-09 06:40 | 37.44704 | 62.18902 | 39037 ft | 538 kts | 135° |
| 2026-05-09 06:41 | 37.40238 | 62.26456 | 39033 ft | 538 kts | 135° |
| 2026-05-09 06:41 | 37.35773 | 62.34000 | 39028 ft | 538 kts | 135° |
| 2026-05-09 06:42 | 37.31305 | 62.41531 | 39031 ft | 538 kts | 135° |
| 2026-05-09 06:42 | 37.26845 | 62.49028 | 39026 ft | 538 kts | 135° |
| 2026-05-09 06:43 | 37.22359 | 62.56549 | 39024 ft | 538 kts | 135° |
| 2026-05-09 06:43 | 37.17834 | 62.64119 | 39023 ft | 538 kts | 135° |
| 2026-05-09 06:44 | 37.13381 | 62.71554 | 39034 ft | 538 kts | 135° |
| 2026-05-09 06:44 | 37.08878 | 62.79054 | 39024 ft | 538 kts | 135° |
| 2026-05-09 06:45 | 37.05101 | 62.85332 | 39025 ft | 538 kts | 135° |
| 2026-05-09 06:45 | 37.00638 | 62.92736 | 39018 ft | 538 kts | 135° |
| 2026-05-09 06:46 | 36.96088 | 63.00267 | 39019 ft | 538 kts | 135° |
| 2026-05-09 06:46 | 36.91620 | 63.07648 | 39023 ft | 537 kts | 135° |
| 2026-05-09 06:47 | 36.87107 | 63.15084 | 39020 ft | 537 kts | 135° |
| 2026-05-09 06:47 | 36.82582 | 63.22523 | 39023 ft | 537 kts | 135° |
| 2026-05-09 06:48 | 36.78060 | 63.29941 | 39021 ft | 537 kts | 135° |
| 2026-05-09 06:48 | 36.73530 | 63.37356 | 39021 ft | 537 kts | 135° |
| 2026-05-09 06:49 | 36.68988 | 63.44775 | 39022 ft | 537 kts | 135° |
| 2026-05-09 06:49 | 36.64455 | 63.52163 | 39023 ft | 538 kts | 135° |
| 2026-05-09 06:50 | 36.59906 | 63.59562 | 39023 ft | 538 kts | 135° |
| 2026-05-09 06:50 | 36.55359 | 63.66940 | 39013 ft | 538 kts | 135° |
| 2026-05-09 06:51 | 36.50826 | 63.74279 | 39014 ft | 538 kts | 135° |
| 2026-05-09 06:51 | 36.46258 | 63.81660 | 39009 ft | 539 kts | 135° |
| 2026-05-09 06:52 | 36.41690 | 63.89024 | 39011 ft | 539 kts | 135° |
| 2026-05-09 06:52 | 36.37101 | 63.96407 | 39007 ft | 540 kts | 135° |
| 2026-05-09 06:53 | 36.32501 | 64.03790 | 39002 ft | 540 kts | 135° |
| 2026-05-09 06:53 | 36.27916 | 64.11136 | 38992 ft | 540 kts | 135° |
| 2026-05-09 06:54 | 36.23307 | 64.18503 | 39004 ft | 541 kts | 135° |
| 2026-05-09 06:54 | 36.18688 | 64.25869 | 38997 ft | 542 kts | 135° |
| 2026-05-09 06:55 | 36.14087 | 64.33268 | 38996 ft | 544 kts | 134° |
| 2026-05-09 06:55 | 36.09613 | 64.40846 | 38998 ft | 545 kts | 133° |
| 2026-05-09 06:56 | 36.05162 | 64.48430 | 38996 ft | 545 kts | 133° |
| 2026-05-09 06:56 | 36.00693 | 64.55967 | 39000 ft | 544 kts | 133° |
| 2026-05-09 06:57 | 35.96202 | 64.63486 | 39015 ft | 544 kts | 133° |
| 2026-05-09 06:57 | 35.91728 | 64.70953 | 39021 ft | 544 kts | 133° |
| 2026-05-09 06:58 | 35.87201 | 64.78494 | 39024 ft | 544 kts | 133° |
| 2026-05-09 06:58 | 35.82723 | 64.85941 | 39038 ft | 543 kts | 133° |
| 2026-05-09 06:59 | 35.78221 | 64.93412 | 39049 ft | 544 kts | 133° |
| 2026-05-09 06:59 | 35.73704 | 65.00891 | 39050 ft | 544 kts | 133° |
| 2026-05-09 07:00 | 35.69172 | 65.08376 | 39057 ft | 545 kts | 133° |
| 2026-05-09 07:00 | 35.64649 | 65.15832 | 39065 ft | 545 kts | 133° |
| 2026-05-09 07:01 | 35.60101 | 65.23317 | 39064 ft | 545 kts | 133° |
| 2026-05-09 07:01 | 35.55555 | 65.30781 | 39063 ft | 545 kts | 133° |
| 2026-05-09 07:02 | 35.51005 | 65.38231 | 39083 ft | 546 kts | 133° |
| 2026-05-09 07:02 | 35.46451 | 65.45677 | 39067 ft | 546 kts | 133° |
| 2026-05-09 07:03 | 35.41911 | 65.53080 | 39083 ft | 546 kts | 133° |
| 2026-05-09 07:03 | 35.37343 | 65.60516 | 39091 ft | 546 kts | 133° |
| 2026-05-09 07:04 | 35.32734 | 65.68003 | 39083 ft | 546 kts | 133° |
| 2026-05-09 07:04 | 35.28191 | 65.75368 | 39098 ft | 546 kts | 133° |
| 2026-05-09 07:05 | 35.23609 | 65.82780 | 39107 ft | 546 kts | 133° |
| 2026-05-09 07:05 | 35.19031 | 65.90166 | 39112 ft | 545 kts | 133° |
| 2026-05-09 07:06 | 35.14445 | 65.97551 | 39113 ft | 546 kts | 133° |
| 2026-05-09 07:06 | 35.09845 | 66.04945 | 39115 ft | 546 kts | 133° |
| 2026-05-09 07:07 | 35.05243 | 66.12325 | 39118 ft | 546 kts | 133° |
| 2026-05-09 07:07 | 35.00644 | 66.19687 | 39119 ft | 545 kts | 132° |
| 2026-05-09 07:08 | 34.96059 | 66.27009 | 39111 ft | 544 kts | 133° |
| 2026-05-09 07:08 | 34.91429 | 66.34326 | 39122 ft | 544 kts | 133° |
| 2026-05-09 07:09 | 34.86785 | 66.41609 | 39122 ft | 544 kts | 133° |
| 2026-05-09 07:09 | 34.82152 | 66.48872 | 39121 ft | 543 kts | 133° |
| 2026-05-09 07:10 | 34.77513 | 66.56139 | 39119 ft | 544 kts | 133° |
| 2026-05-09 07:10 | 34.72878 | 66.63386 | 39123 ft | 544 kts | 133° |
| 2026-05-09 07:11 | 34.68228 | 66.70641 | 39118 ft | 544 kts | 133° |
| 2026-05-09 07:11 | 34.63574 | 66.77892 | 39115 ft | 544 kts | 133° |
| 2026-05-09 07:12 | 34.58951 | 66.85077 | 39111 ft | 544 kts | 133° |
| 2026-05-09 07:12 | 34.54293 | 66.92301 | 39107 ft | 544 kts | 133° |
| 2026-05-09 07:13 | 34.49625 | 66.99532 | 39110 ft | 545 kts | 133° |
| 2026-05-09 07:13 | 34.44925 | 67.06767 | 39106 ft | 544 kts | 133° |
| 2026-05-09 07:14 | 34.40249 | 67.13955 | 39101 ft | 544 kts | 132° |
| 2026-05-09 07:14 | 34.35555 | 67.21164 | 39095 ft | 545 kts | 133° |
| 2026-05-09 07:15 | 34.30859 | 67.28360 | 39099 ft | 546 kts | 133° |
| 2026-05-09 07:15 | 34.26152 | 67.35561 | 39096 ft | 546 kts | 133° |
| 2026-05-09 07:16 | 34.21423 | 67.42780 | 39101 ft | 547 kts | 133° |
| 2026-05-09 07:16 | 34.16712 | 67.49959 | 39094 ft | 547 kts | 132° |
| 2026-05-09 07:17 | 34.11972 | 67.57165 | 39110 ft | 547 kts | 133° |
| 2026-05-09 07:17 | 34.07222 | 67.64373 | 39107 ft | 548 kts | 133° |
| 2026-05-09 07:18 | 34.02479 | 67.71555 | 39103 ft | 549 kts | 133° |
| 2026-05-09 07:18 | 33.97743 | 67.78713 | 39110 ft | 549 kts | 133° |
| 2026-05-09 07:19 | 33.92955 | 67.85880 | 39098 ft | 548 kts | 133° |
| 2026-05-09 07:19 | 33.88129 | 67.93009 | 39080 ft | 550 kts | 133° |
| 2026-05-09 07:20 | 33.83303 | 68.00131 | 39072 ft | 550 kts | 133° |
| 2026-05-09 07:20 | 33.78477 | 68.07257 | 39059 ft | 551 kts | 133° |
| 2026-05-09 07:21 | 33.73626 | 68.14412 | 39045 ft | 551 kts | 133° |
| 2026-05-09 07:21 | 33.68777 | 68.21549 | 39029 ft | 552 kts | 133° |
| 2026-05-09 07:22 | 33.63925 | 68.28677 | 39013 ft | 552 kts | 133° |
| 2026-05-09 07:22 | 33.59057 | 68.35813 | 38995 ft | 552 kts | 133° |
| 2026-05-09 07:23 | 33.54186 | 68.42939 | 38978 ft | 553 kts | 133° |
| 2026-05-09 07:23 | 33.49261 | 68.49948 | 38972 ft | 552 kts | 134° |
| 2026-05-09 07:24 | 33.44211 | 68.56952 | 38966 ft | 553 kts | 134° |
| 2026-05-09 07:24 | 33.39218 | 68.63892 | 38959 ft | 554 kts | 134° |
| 2026-05-09 07:25 | 33.34197 | 68.70893 | 38964 ft | 555 kts | 134° |
| 2026-05-09 07:25 | 33.29179 | 68.77890 | 38967 ft | 555 kts | 134° |
| 2026-05-09 07:26 | 33.24224 | 68.85009 | 38971 ft | 558 kts | 130° |
| 2026-05-09 07:26 | 33.19545 | 68.92413 | 38980 ft | 559 kts | 129° |
| 2026-05-09 07:27 | 33.14878 | 68.99834 | 38984 ft | 559 kts | 130° |
| 2026-05-09 07:27 | 33.10161 | 69.07194 | 38989 ft | 559 kts | 130° |
| 2026-05-09 07:28 | 33.05410 | 69.14530 | 38982 ft | 559 kts | 130° |
| 2026-05-09 07:28 | 33.00659 | 69.21844 | 38984 ft | 559 kts | 130° |
| 2026-05-09 07:29 | 32.95912 | 69.29143 | 38970 ft | 559 kts | 130° |
| 2026-05-09 07:29 | 32.91150 | 69.36457 | 38966 ft | 559 kts | 130° |
| 2026-05-09 07:30 | 32.86351 | 69.43812 | 38967 ft | 560 kts | 130° |
| 2026-05-09 07:30 | 32.81587 | 69.51091 | 38964 ft | 561 kts | 130° |
| 2026-05-09 07:31 | 32.76776 | 69.58389 | 38967 ft | 561 kts | 130° |
| 2026-05-09 07:31 | 32.71957 | 69.65690 | 38964 ft | 562 kts | 130° |
| 2026-05-09 07:32 | 32.67123 | 69.73007 | 38967 ft | 563 kts | 130° |
| 2026-05-09 07:32 | 32.62291 | 69.80305 | 38958 ft | 563 kts | 130° |
| 2026-05-09 07:33 | 32.55042 | 69.91237 | 38948 ft | 563 kts | 130° |
| 2026-05-09 07:34 | 32.50196 | 69.98526 | 38935 ft | 563 kts | 130° |
| 2026-05-09 07:34 | 32.45348 | 70.05803 | 38917 ft | 564 kts | 130° |
| 2026-05-09 07:35 | 32.40476 | 70.13102 | 38899 ft | 563 kts | 130° |
| 2026-05-09 07:35 | 32.35621 | 70.20371 | 38874 ft | 564 kts | 129° |
| 2026-05-09 07:36 | 32.30840 | 70.27743 | 38861 ft | 565 kts | 128° |
| 2026-05-09 07:36 | 32.26092 | 70.35143 | 38846 ft | 565 kts | 128° |
| 2026-05-09 07:37 | 32.22151 | 70.41251 | 38838 ft | 565 kts | 128° |
| 2026-05-09 07:37 | 32.16971 | 70.49234 | 38832 ft | 565 kts | 129° |
| 2026-05-09 07:38 | 32.12981 | 70.55363 | 38831 ft | 566 kts | 129° |
| 2026-05-09 07:38 | 32.07376 | 70.63956 | 38825 ft | 566 kts | 129° |
| 2026-05-09 07:39 | 32.03359 | 70.70105 | 38824 ft | 566 kts | 128° |
| 2026-05-09 07:39 | 31.98530 | 70.77484 | 38825 ft | 567 kts | 128° |
| 2026-05-09 07:40 | 31.93722 | 70.84817 | 38828 ft | 567 kts | 128° |
| 2026-05-09 07:40 | 31.89426 | 70.92627 | 38992 ft | 568 kts | 118° |
| 2026-05-09 07:40 | 31.87550 | 70.96705 | 39248 ft | 565 kts | 117° |
| 2026-05-09 07:41 | 31.85721 | 71.00773 | 39499 ft | 563 kts | 117° |
| 2026-05-09 07:41 | 31.83930 | 71.04792 | 39722 ft | 562 kts | 117° |
| 2026-05-09 07:41 | 31.82098 | 71.08903 | 39939 ft | 560 kts | 117° |
| 2026-05-09 07:41 | 31.80281 | 71.12966 | 40139 ft | 559 kts | 117° |
| 2026-05-09 07:42 | 31.78474 | 71.16988 | 40341 ft | 558 kts | 117° |
| 2026-05-09 07:42 | 31.76691 | 71.20941 | 40526 ft | 557 kts | 117° |
| 2026-05-09 07:42 | 31.74862 | 71.24987 | 40711 ft | 555 kts | 117° |
| 2026-05-09 07:42 | 31.73026 | 71.29038 | 40820 ft | 556 kts | 117° |
| 2026-05-09 07:43 | 31.71210 | 71.33042 | 40824 ft | 557 kts | 117° |
| 2026-05-09 07:43 | 31.67598 | 71.40994 | 40832 ft | 556 kts | 117° |
| 2026-05-09 07:44 | 31.63931 | 71.49052 | 40832 ft | 555 kts | 117° |
| 2026-05-09 07:44 | 31.60328 | 71.56952 | 40839 ft | 556 kts | 117° |
| 2026-05-09 07:45 | 31.56672 | 71.64970 | 40840 ft | 556 kts | 117° |
| 2026-05-09 07:45 | 31.53006 | 71.72968 | 40844 ft | 556 kts | 117° |
| 2026-05-09 07:46 | 31.49336 | 71.80947 | 40844 ft | 556 kts | 117° |
| 2026-05-09 07:46 | 31.45660 | 71.88932 | 40846 ft | 560 kts | 117° |
| 2026-05-09 07:47 | 31.41938 | 71.97003 | 40843 ft | 565 kts | 117° |
| 2026-05-09 07:47 | 31.38188 | 72.05118 | 40844 ft | 568 kts | 117° |
| 2026-05-09 07:48 | 31.34423 | 72.13247 | 40843 ft | 570 kts | 117° |
| 2026-05-09 07:48 | 31.30627 | 72.21424 | 40847 ft | 570 kts | 117° |
| 2026-05-09 07:49 | 31.27813 | 72.29938 | 40845 ft | 562 kts | 97° |
| 2026-05-09 07:49 | 31.27394 | 72.34433 | 40850 ft | 554 kts | 85° |
| 2026-05-09 07:49 | 31.27623 | 72.38892 | 40852 ft | 548 kts | 78° |
| 2026-05-09 07:50 | 31.28573 | 72.47751 | 40850 ft | 546 kts | 76° |
| 2026-05-09 07:50 | 31.29623 | 72.56507 | 40855 ft | 547 kts | 76° |
| 2026-05-09 07:51 | 31.30642 | 72.65332 | 40853 ft | 547 kts | 76° |
| 2026-05-09 07:51 | 31.31622 | 72.74143 | 40856 ft | 547 kts | 77° |
| 2026-05-09 07:52 | 31.32588 | 72.82970 | 40861 ft | 547 kts | 77° |
| 2026-05-09 07:52 | 31.33546 | 72.91775 | 40857 ft | 547 kts | 76° |
| 2026-05-09 07:53 | 31.34502 | 73.00600 | 40858 ft | 546 kts | 77° |
| 2026-05-09 07:53 | 31.35452 | 73.09433 | 40858 ft | 546 kts | 76° |
| 2026-05-09 07:54 | 31.36395 | 73.18231 | 40859 ft | 546 kts | 76° |
| 2026-05-09 07:54 | 31.37335 | 73.27067 | 40860 ft | 546 kts | 76° |
| 2026-05-09 07:55 | 31.38265 | 73.35868 | 40861 ft | 546 kts | 76° |
| 2026-05-09 07:55 | 31.39190 | 73.44682 | 40864 ft | 545 kts | 76° |
| 2026-05-09 07:56 | 31.40108 | 73.53494 | 40862 ft | 545 kts | 76° |
| 2026-05-09 07:56 | 31.41019 | 73.62293 | 40863 ft | 545 kts | 76° |
| 2026-05-09 07:57 | 31.41924 | 73.71097 | 40863 ft | 545 kts | 76° |
| 2026-05-09 07:57 | 31.42828 | 73.79907 | 40862 ft | 545 kts | 76° |
| 2026-05-09 07:58 | 31.43711 | 73.88665 | 40864 ft | 545 kts | 76° |
| 2026-05-09 07:58 | 31.44570 | 73.97470 | 40867 ft | 547 kts | 78° |
| 2026-05-09 07:59 | 31.44092 | 74.06501 | 40871 ft | 561 kts | 95° |
| 2026-05-09 07:59 | 31.42522 | 74.15405 | 40874 ft | 563 kts | 97° |
| 2026-05-09 08:00 | 31.40785 | 74.24358 | 40878 ft | 563 kts | 97° |
| 2026-05-09 08:00 | 31.39752 | 74.29697 | 40880 ft | 563 kts | 97° |
| 2026-05-09 08:01 | 31.38049 | 74.38616 | 40864 ft | 563 kts | 97° |
| 2026-05-09 08:01 | 31.36352 | 74.47567 | 40863 ft | 563 kts | 97° |
| 2026-05-09 08:02 | 31.34653 | 74.56506 | 40862 ft | 563 kts | 97° |
| 2026-05-09 08:02 | 31.32695 | 74.65400 | 40859 ft | 566 kts | 101° |
| 2026-05-09 08:03 | 31.30381 | 74.74208 | 40858 ft | 567 kts | 102° |
| 2026-05-09 08:03 | 31.28105 | 74.82959 | 40858 ft | 566 kts | 101° |
| 2026-05-09 08:04 | 31.25872 | 74.91815 | 40861 ft | 565 kts | 101° |
| 2026-05-09 08:04 | 31.23668 | 75.00640 | 40856 ft | 565 kts | 101° |
| 2026-05-09 08:05 | 31.21466 | 75.09429 | 40863 ft | 565 kts | 101° |
| 2026-05-09 08:05 | 31.19269 | 75.18156 | 40872 ft | 564 kts | 101° |
| 2026-05-09 08:06 | 31.17043 | 75.26958 | 40865 ft | 564 kts | 101° |
| 2026-05-09 08:06 | 31.14814 | 75.35740 | 40867 ft | 563 kts | 101° |
| 2026-05-09 08:07 | 31.12590 | 75.44484 | 40872 ft | 563 kts | 101° |
| 2026-05-09 08:07 | 31.10260 | 75.53238 | 40874 ft | 566 kts | 104° |
| 2026-05-09 08:08 | 31.07352 | 75.61791 | 40879 ft | 568 kts | 107° |
| 2026-05-09 08:08 | 31.04341 | 75.70302 | 40888 ft | 568 kts | 107° |
| 2026-05-09 08:09 | 31.01422 | 75.78846 | 40872 ft | 567 kts | 105° |
| 2026-05-09 08:09 | 30.98554 | 75.87406 | 40880 ft | 567 kts | 105° |
| 2026-05-09 08:10 | 30.95685 | 75.95977 | 40888 ft | 567 kts | 105° |
| 2026-05-09 08:10 | 30.92818 | 76.04502 | 40883 ft | 567 kts | 105° |
| 2026-05-09 08:11 | 30.89943 | 76.13018 | 40884 ft | 567 kts | 105° |
| 2026-05-09 08:11 | 30.87027 | 76.21631 | 40889 ft | 567 kts | 105° |
| 2026-05-09 08:12 | 30.82698 | 76.34379 | 40896 ft | 568 kts | 105° |
| 2026-05-09 08:12 | 30.79791 | 76.42913 | 40899 ft | 567 kts | 105° |
| 2026-05-09 08:13 | 30.76860 | 76.51494 | 40910 ft | 567 kts | 105° |
| 2026-05-09 08:13 | 30.73944 | 76.60011 | 40916 ft | 566 kts | 105° |
| 2026-05-09 08:14 | 30.71049 | 76.68448 | 40913 ft | 566 kts | 105° |
| 2026-05-09 08:14 | 30.67861 | 76.76828 | 40912 ft | 574 kts | 116° |
| 2026-05-09 08:15 | 30.63257 | 76.84457 | 40910 ft | 578 kts | 122° |
| 2026-05-09 08:15 | 30.58374 | 76.91898 | 40915 ft | 579 kts | 123° |
| 2026-05-09 08:16 | 30.53487 | 76.99290 | 40920 ft | 578 kts | 123° |
| 2026-05-09 08:16 | 30.48617 | 77.06704 | 40930 ft | 577 kts | 123° |
| 2026-05-09 08:17 | 30.43766 | 77.14105 | 40936 ft | 577 kts | 122° |
| 2026-05-09 08:17 | 30.38060 | 77.20688 | 40933 ft | 585 kts | 144° |
| 2026-05-09 08:18 | 30.30949 | 77.25310 | 40924 ft | 587 kts | 152° |
| 2026-05-09 08:18 | 30.23629 | 77.29527 | 40923 ft | 588 kts | 153° |
| 2026-05-09 08:19 | 30.16290 | 77.33725 | 40921 ft | 588 kts | 153° |
| 2026-05-09 08:19 | 30.08977 | 77.37960 | 40920 ft | 588 kts | 153° |
| 2026-05-09 08:20 | 30.01688 | 77.42237 | 40912 ft | 587 kts | 150° |
| 2026-05-09 08:20 | 29.95007 | 77.47606 | 40916 ft | 585 kts | 140° |
| 2026-05-09 08:21 | 29.88629 | 77.53297 | 40915 ft | 584 kts | 139° |
| 2026-05-09 08:21 | 29.82227 | 77.59079 | 40914 ft | 584 kts | 140° |
| 2026-05-09 08:22 | 29.75796 | 77.64848 | 40920 ft | 583 kts | 140° |
| 2026-05-09 08:22 | 29.69419 | 77.70535 | 40917 ft | 583 kts | 140° |
| 2026-05-09 08:23 | 29.63016 | 77.76230 | 40920 ft | 582 kts | 140° |
| 2026-05-09 08:23 | 29.56609 | 77.81922 | 40913 ft | 581 kts | 140° |
| 2026-05-09 08:24 | 29.50226 | 77.87584 | 40918 ft | 581 kts | 140° |
| 2026-05-09 08:24 | 29.43821 | 77.93256 | 40916 ft | 580 kts | 140° |
| 2026-05-09 08:25 | 29.37435 | 77.98903 | 40916 ft | 580 kts | 140° |
| 2026-05-09 08:25 | 29.31046 | 78.04543 | 40907 ft | 579 kts | 140° |
| 2026-05-09 08:26 | 29.24631 | 78.10196 | 40907 ft | 579 kts | 140° |
| 2026-05-09 08:26 | 29.18290 | 78.15775 | 40903 ft | 578 kts | 141° |
| 2026-05-09 08:27 | 29.11911 | 78.21379 | 40908 ft | 578 kts | 141° |
| 2026-05-09 08:27 | 29.06138 | 78.26443 | 40905 ft | 577 kts | 141° |
| 2026-05-09 08:28 | 28.99678 | 78.32100 | 40904 ft | 577 kts | 141° |
| 2026-05-09 08:28 | 28.93298 | 78.37679 | 40901 ft | 576 kts | 141° |
| 2026-05-09 08:29 | 28.86938 | 78.43231 | 40900 ft | 575 kts | 141° |
| 2026-05-09 08:29 | 28.81655 | 78.47837 | 40894 ft | 575 kts | 141° |
| 2026-05-09 08:30 | 28.75297 | 78.53371 | 40896 ft | 574 kts | 141° |
| 2026-05-09 08:30 | 28.68901 | 78.58929 | 40898 ft | 573 kts | 142° |
| 2026-05-09 08:31 | 28.62576 | 78.64418 | 40884 ft | 572 kts | 142° |
| 2026-05-09 08:31 | 28.56251 | 78.69898 | 40893 ft | 572 kts | 142° |
| 2026-05-09 08:32 | 28.54153 | 78.71714 | 40894 ft | 572 kts | 142° |
| 2026-05-09 08:33 | 28.41476 | 78.84053 | 40881 ft | 569 kts | 133° |
| 2026-05-09 08:33 | 28.35873 | 78.90454 | 40880 ft | 568 kts | 133° |
| 2026-05-09 08:34 | 28.30319 | 78.96821 | 40881 ft | 568 kts | 133° |
| 2026-05-09 08:34 | 28.24757 | 79.03164 | 40877 ft | 567 kts | 134° |
| 2026-05-09 08:35 | 28.19216 | 79.09457 | 40875 ft | 567 kts | 134° |
| 2026-05-09 08:35 | 28.13637 | 79.15780 | 40873 ft | 567 kts | 134° |
| 2026-05-09 08:36 | 28.08055 | 79.22099 | 40872 ft | 567 kts | 134° |
| 2026-05-09 08:36 | 28.02472 | 79.28409 | 40865 ft | 567 kts | 134° |
| 2026-05-09 08:37 | 27.96878 | 79.34722 | 40865 ft | 567 kts | 134° |
| 2026-05-09 08:37 | 27.91303 | 79.41003 | 40866 ft | 567 kts | 134° |
| 2026-05-09 08:38 | 27.85716 | 79.47289 | 40864 ft | 567 kts | 134° |
| 2026-05-09 08:38 | 27.80114 | 79.53582 | 40865 ft | 566 kts | 134° |
| 2026-05-09 08:39 | 27.74529 | 79.59846 | 40864 ft | 566 kts | 134° |
| 2026-05-09 08:39 | 27.69028 | 79.66177 | 40871 ft | 565 kts | 129° |
| 2026-05-09 08:40 | 27.63907 | 79.72917 | 40863 ft | 565 kts | 129° |
| 2026-05-09 08:40 | 27.58864 | 79.79691 | 40859 ft | 564 kts | 129° |
| 2026-05-09 08:41 | 27.54669 | 79.85326 | 40859 ft | 564 kts | 129° |
| 2026-05-09 08:41 | 27.48757 | 79.93236 | 40861 ft | 564 kts | 129° |
| 2026-05-09 08:42 | 27.43698 | 79.99980 | 40859 ft | 564 kts | 129° |
| 2026-05-09 08:42 | 27.38633 | 80.06723 | 40859 ft | 563 kts | 129° |
| 2026-05-09 08:43 | 27.33571 | 80.13451 | 40860 ft | 563 kts | 129° |
| 2026-05-09 08:43 | 27.28510 | 80.20167 | 40856 ft | 562 kts | 130° |
| 2026-05-09 08:44 | 27.23465 | 80.26854 | 40854 ft | 562 kts | 130° |
| 2026-05-09 08:44 | 27.18407 | 80.33546 | 40856 ft | 562 kts | 130° |
| 2026-05-09 08:45 | 27.13372 | 80.40198 | 40853 ft | 561 kts | 130° |
| 2026-05-09 08:45 | 27.09144 | 80.45776 | 40857 ft | 561 kts | 130° |
| 2026-05-09 08:46 | 27.03228 | 80.53568 | 40851 ft | 560 kts | 130° |
| 2026-05-09 08:46 | 26.98212 | 80.60165 | 40851 ft | 560 kts | 130° |
| 2026-05-09 08:47 | 26.93150 | 80.66811 | 40853 ft | 560 kts | 130° |
| 2026-05-09 08:47 | 26.88067 | 80.73476 | 40852 ft | 559 kts | 130° |
| 2026-05-09 08:48 | 26.83009 | 80.80098 | 40855 ft | 559 kts | 131° |
| 2026-05-09 08:48 | 26.77948 | 80.86713 | 40857 ft | 559 kts | 131° |
| 2026-05-09 08:49 | 26.72997 | 80.93363 | 40858 ft | 559 kts | 127° |
| 2026-05-09 08:49 | 26.68477 | 81.00427 | 40854 ft | 558 kts | 124° |
| 2026-05-09 08:50 | 26.64022 | 81.07542 | 40849 ft | 558 kts | 126° |
| 2026-05-09 08:50 | 26.59499 | 81.14574 | 40840 ft | 558 kts | 126° |
| 2026-05-09 08:51 | 26.54897 | 81.21617 | 40835 ft | 558 kts | 127° |
| 2026-05-09 08:51 | 26.50315 | 81.28599 | 40834 ft | 558 kts | 127° |
| 2026-05-09 08:52 | 26.45731 | 81.35583 | 40834 ft | 557 kts | 127° |
| 2026-05-09 08:52 | 26.41923 | 81.41382 | 40834 ft | 557 kts | 127° |
| 2026-05-09 08:53 | 26.36590 | 81.49491 | 40832 ft | 557 kts | 127° |
| 2026-05-09 08:53 | 26.32009 | 81.56445 | 40835 ft | 557 kts | 127° |
| 2026-05-09 08:54 | 26.27420 | 81.63401 | 40831 ft | 557 kts | 127° |
| 2026-05-09 08:54 | 26.24342 | 81.68059 | 40833 ft | 557 kts | 127° |
| 2026-05-09 08:55 | 26.18366 | 81.77094 | 40832 ft | 556 kts | 127° |
| 2026-05-09 08:55 | 26.13769 | 81.84029 | 40830 ft | 556 kts | 128° |
| 2026-05-09 08:56 | 26.09178 | 81.90946 | 40827 ft | 556 kts | 128° |
| 2026-05-09 08:56 | 26.04571 | 81.97875 | 40825 ft | 556 kts | 128° |
| 2026-05-09 08:57 | 26.00746 | 82.03622 | 40827 ft | 555 kts | 128° |
| 2026-05-09 08:57 | 25.95369 | 82.11688 | 40818 ft | 555 kts | 128° |
| 2026-05-09 08:58 | 25.90777 | 82.18564 | 40826 ft | 555 kts | 128° |
| 2026-05-09 08:58 | 25.88483 | 82.21996 | 40820 ft | 555 kts | 128° |